<?xml version="1.0" encoding="UTF-8" standalone="no" ?>
<gpx xmlns="http://www.topografix.com/GPX/1/1" xmlns:xsi="http://www.w3.org/2001/XMLSchema-instance" xsi:schemaLocation="http://www.topografix.com/GPX/1/1 http://www.topografix.com/GPX/1/1/gpx.xsd" version="1.1" creator="VisuGPX - https://www.visugpx.com">
  <metadata>
    <name>col de la nugere</name>
    <desc><![CDATA[Col de la nugere 
]]></desc>
  </metadata>
  <trk>
    <name><![CDATA[2013-06-10 10:49 col de la buvette ]]></name>
    <desc><![CDATA[<h1>OruxMaps</h1><br /><hr align="center" width="480" style="height: 2px; width: 517px"/><h2>Nom: 2013-06-10 10:49 col de la buvette </h2><br /><p>Temps de départ: 06/10/2013 10:51</p><p>Temps d'arrivée: 06/10/2013 13:29</p><p>Distance: 17,7 km (02:38)</p><p>Temps déplacement: 01:49</p><p>Vitesse moyenne: 6,7 km/h</p><p>Vitesse moyenne: 9,7 km/h</p><p>Vitess Max.: 33,1 km/h</p><p>Altitude minimale: 766 m</p><p>Altitude maximale: 905 m</p><p>Vitesse d'élévation: 444,7 m/h</p><p>Vitesse de descente: -510,8 m/h</p><p>Gain Altitude: 423 m</p><p>Perte Altitude: -438 m</p><p>Temps d'élévation: 00:57</p><p>Temps de descente: 00:51</p><hr align="center" width="480" style="height: 2px; width: 517px"/>]]></desc>
    <trkseg>
      <trkpt lat="45.85669" lon="2.98053">
        <ele>889.33</ele>
        <time>2013-06-10T08:51:26Z</time>
      </trkpt>
      <trkpt lat="45.85686" lon="2.98067">
        <ele>903.11</ele>
        <time>2013-06-10T08:53:17Z</time>
      </trkpt>
      <trkpt lat="45.85705" lon="2.98066">
        <ele>905.38</ele>
        <time>2013-06-10T08:53:32Z</time>
      </trkpt>
      <trkpt lat="45.8572" lon="2.98051">
        <ele>900.68</ele>
        <time>2013-06-10T08:53:44Z</time>
      </trkpt>
      <trkpt lat="45.85731" lon="2.98029">
        <ele>900.86</ele>
        <time>2013-06-10T08:53:57Z</time>
      </trkpt>
      <trkpt lat="45.8574" lon="2.98005">
        <ele>894.89</ele>
        <time>2013-06-10T08:54:06Z</time>
      </trkpt>
      <trkpt lat="45.85751" lon="2.97985">
        <ele>891.21</ele>
        <time>2013-06-10T08:54:11Z</time>
      </trkpt>
      <trkpt lat="45.85765" lon="2.97968">
        <ele>892.56</ele>
        <time>2013-06-10T08:54:17Z</time>
      </trkpt>
      <trkpt lat="45.85782" lon="2.97956">
        <ele>896.08</ele>
        <time>2013-06-10T08:54:24Z</time>
      </trkpt>
      <trkpt lat="45.85799" lon="2.97949">
        <ele>887.99</ele>
        <time>2013-06-10T08:54:32Z</time>
      </trkpt>
      <trkpt lat="45.85818" lon="2.97944">
        <ele>891.36</ele>
        <time>2013-06-10T08:54:41Z</time>
      </trkpt>
      <trkpt lat="45.85836" lon="2.97938">
        <ele>889.41</ele>
        <time>2013-06-10T08:54:48Z</time>
      </trkpt>
      <trkpt lat="45.85854" lon="2.97932">
        <ele>887.59</ele>
        <time>2013-06-10T08:54:53Z</time>
      </trkpt>
      <trkpt lat="45.85873" lon="2.97923">
        <ele>893.15</ele>
        <time>2013-06-10T08:55:00Z</time>
      </trkpt>
      <trkpt lat="45.85895" lon="2.97917">
        <ele>892.47</ele>
        <time>2013-06-10T08:55:05Z</time>
      </trkpt>
      <trkpt lat="45.85914" lon="2.97918">
        <ele>888.95</ele>
        <time>2013-06-10T08:55:11Z</time>
      </trkpt>
      <trkpt lat="45.85932" lon="2.97914">
        <ele>887.26</ele>
        <time>2013-06-10T08:55:16Z</time>
      </trkpt>
      <trkpt lat="45.85951" lon="2.97913">
        <ele>887.14</ele>
        <time>2013-06-10T08:55:20Z</time>
      </trkpt>
      <trkpt lat="45.85971" lon="2.97903">
        <ele>883.81</ele>
        <time>2013-06-10T08:55:25Z</time>
      </trkpt>
      <trkpt lat="45.85991" lon="2.97896">
        <ele>880</ele>
        <time>2013-06-10T08:55:29Z</time>
      </trkpt>
      <trkpt lat="45.86009" lon="2.97894">
        <ele>876.34</ele>
        <time>2013-06-10T08:55:34Z</time>
      </trkpt>
      <trkpt lat="45.86027" lon="2.97897">
        <ele>881.91</ele>
        <time>2013-06-10T08:55:41Z</time>
      </trkpt>
      <trkpt lat="45.86049" lon="2.9789">
        <ele>881.93</ele>
        <time>2013-06-10T08:55:46Z</time>
      </trkpt>
      <trkpt lat="45.86068" lon="2.97885">
        <ele>880.73</ele>
        <time>2013-06-10T08:55:50Z</time>
      </trkpt>
      <trkpt lat="45.86088" lon="2.97881">
        <ele>879.74</ele>
        <time>2013-06-10T08:55:55Z</time>
      </trkpt>
      <trkpt lat="45.86105" lon="2.97888">
        <ele>880.56</ele>
        <time>2013-06-10T08:55:59Z</time>
      </trkpt>
      <trkpt lat="45.86124" lon="2.97891">
        <ele>876.69</ele>
        <time>2013-06-10T08:56:03Z</time>
      </trkpt>
      <trkpt lat="45.86147" lon="2.9789">
        <ele>874.2</ele>
        <time>2013-06-10T08:56:08Z</time>
      </trkpt>
      <trkpt lat="45.86165" lon="2.97889">
        <ele>873.01</ele>
        <time>2013-06-10T08:56:12Z</time>
      </trkpt>
      <trkpt lat="45.86186" lon="2.97887">
        <ele>873.2</ele>
        <time>2013-06-10T08:56:17Z</time>
      </trkpt>
      <trkpt lat="45.86208" lon="2.97888">
        <ele>873.11</ele>
        <time>2013-06-10T08:56:22Z</time>
      </trkpt>
      <trkpt lat="45.86228" lon="2.97887">
        <ele>870.1</ele>
        <time>2013-06-10T08:56:27Z</time>
      </trkpt>
      <trkpt lat="45.86247" lon="2.97889">
        <ele>869.85</ele>
        <time>2013-06-10T08:56:32Z</time>
      </trkpt>
      <trkpt lat="45.86268" lon="2.97888">
        <ele>869.5</ele>
        <time>2013-06-10T08:56:38Z</time>
      </trkpt>
      <trkpt lat="45.86285" lon="2.97898">
        <ele>877.14</ele>
        <time>2013-06-10T08:56:43Z</time>
      </trkpt>
      <trkpt lat="45.86304" lon="2.97903">
        <ele>878.18</ele>
        <time>2013-06-10T08:56:48Z</time>
      </trkpt>
      <trkpt lat="45.86324" lon="2.97906">
        <ele>875.45</ele>
        <time>2013-06-10T08:56:53Z</time>
      </trkpt>
      <trkpt lat="45.86343" lon="2.97904">
        <ele>871.43</ele>
        <time>2013-06-10T08:56:59Z</time>
      </trkpt>
      <trkpt lat="45.86362" lon="2.97912">
        <ele>868.15</ele>
        <time>2013-06-10T08:58:13Z</time>
      </trkpt>
      <trkpt lat="45.8638" lon="2.97926">
        <ele>870.14</ele>
        <time>2013-06-10T08:58:20Z</time>
      </trkpt>
      <trkpt lat="45.86396" lon="2.9794">
        <ele>869.88</ele>
        <time>2013-06-10T08:58:24Z</time>
      </trkpt>
      <trkpt lat="45.86413" lon="2.97953">
        <ele>870.79</ele>
        <time>2013-06-10T08:58:30Z</time>
      </trkpt>
      <trkpt lat="45.8643" lon="2.97965">
        <ele>871.48</ele>
        <time>2013-06-10T08:58:38Z</time>
      </trkpt>
      <trkpt lat="45.86445" lon="2.97981">
        <ele>869.77</ele>
        <time>2013-06-10T08:58:44Z</time>
      </trkpt>
      <trkpt lat="45.8646" lon="2.97996">
        <ele>868.63</ele>
        <time>2013-06-10T08:58:49Z</time>
      </trkpt>
      <trkpt lat="45.86474" lon="2.98014">
        <ele>862.66</ele>
        <time>2013-06-10T08:58:55Z</time>
      </trkpt>
      <trkpt lat="45.86492" lon="2.98028">
        <ele>861.16</ele>
        <time>2013-06-10T08:59:03Z</time>
      </trkpt>
      <trkpt lat="45.86507" lon="2.98045">
        <ele>860.61</ele>
        <time>2013-06-10T08:59:10Z</time>
      </trkpt>
      <trkpt lat="45.86522" lon="2.9806">
        <ele>863.25</ele>
        <time>2013-06-10T08:59:21Z</time>
      </trkpt>
      <trkpt lat="45.8654" lon="2.98072">
        <ele>863.07</ele>
        <time>2013-06-10T08:59:29Z</time>
      </trkpt>
      <trkpt lat="45.86556" lon="2.98091">
        <ele>861.55</ele>
        <time>2013-06-10T08:59:53Z</time>
      </trkpt>
      <trkpt lat="45.86568" lon="2.98113">
        <ele>862.7</ele>
        <time>2013-06-10T09:00:01Z</time>
      </trkpt>
      <trkpt lat="45.86581" lon="2.98135">
        <ele>864.31</ele>
        <time>2013-06-10T09:00:09Z</time>
      </trkpt>
      <trkpt lat="45.86599" lon="2.98151">
        <ele>863.95</ele>
        <time>2013-06-10T09:00:15Z</time>
      </trkpt>
      <trkpt lat="45.86616" lon="2.98164">
        <ele>862.79</ele>
        <time>2013-06-10T09:00:19Z</time>
      </trkpt>
      <trkpt lat="45.86636" lon="2.98163">
        <ele>869.9</ele>
        <time>2013-06-10T09:00:25Z</time>
      </trkpt>
      <trkpt lat="45.86657" lon="2.98166">
        <ele>868.92</ele>
        <time>2013-06-10T09:00:30Z</time>
      </trkpt>
      <trkpt lat="45.86676" lon="2.98177">
        <ele>863.03</ele>
        <time>2013-06-10T09:00:35Z</time>
      </trkpt>
      <trkpt lat="45.86692" lon="2.98191">
        <ele>856.24</ele>
        <time>2013-06-10T09:00:41Z</time>
      </trkpt>
      <trkpt lat="45.867" lon="2.98219">
        <ele>851.09</ele>
        <time>2013-06-10T09:00:47Z</time>
      </trkpt>
      <trkpt lat="45.86709" lon="2.98244">
        <ele>847.45</ele>
        <time>2013-06-10T09:00:53Z</time>
      </trkpt>
      <trkpt lat="45.86723" lon="2.98265">
        <ele>848.55</ele>
        <time>2013-06-10T09:00:58Z</time>
      </trkpt>
      <trkpt lat="45.86734" lon="2.98286">
        <ele>852.04</ele>
        <time>2013-06-10T09:01:03Z</time>
      </trkpt>
      <trkpt lat="45.86748" lon="2.98309">
        <ele>851.36</ele>
        <time>2013-06-10T09:01:07Z</time>
      </trkpt>
      <trkpt lat="45.86765" lon="2.98323">
        <ele>851.08</ele>
        <time>2013-06-10T09:01:12Z</time>
      </trkpt>
      <trkpt lat="45.8678" lon="2.98338">
        <ele>850.47</ele>
        <time>2013-06-10T09:01:19Z</time>
      </trkpt>
      <trkpt lat="45.86797" lon="2.98345">
        <ele>848.95</ele>
        <time>2013-06-10T09:01:26Z</time>
      </trkpt>
      <trkpt lat="45.86816" lon="2.98337">
        <ele>833</ele>
        <time>2013-06-10T09:02:02Z</time>
      </trkpt>
      <trkpt lat="45.86835" lon="2.98332">
        <ele>830.31</ele>
        <time>2013-06-10T09:02:07Z</time>
      </trkpt>
      <trkpt lat="45.86853" lon="2.98322">
        <ele>827.8</ele>
        <time>2013-06-10T09:02:13Z</time>
      </trkpt>
      <trkpt lat="45.86872" lon="2.98313">
        <ele>823.94</ele>
        <time>2013-06-10T09:02:19Z</time>
      </trkpt>
      <trkpt lat="45.86891" lon="2.98299">
        <ele>822.02</ele>
        <time>2013-06-10T09:02:26Z</time>
      </trkpt>
      <trkpt lat="45.86904" lon="2.98279">
        <ele>824.13</ele>
        <time>2013-06-10T09:02:31Z</time>
      </trkpt>
      <trkpt lat="45.86919" lon="2.98262">
        <ele>828.33</ele>
        <time>2013-06-10T09:02:40Z</time>
      </trkpt>
      <trkpt lat="45.86935" lon="2.98248">
        <ele>830.83</ele>
        <time>2013-06-10T09:02:51Z</time>
      </trkpt>
      <trkpt lat="45.86955" lon="2.98243">
        <ele>832.25</ele>
        <time>2013-06-10T09:02:58Z</time>
      </trkpt>
      <trkpt lat="45.86973" lon="2.98233">
        <ele>832.56</ele>
        <time>2013-06-10T09:03:04Z</time>
      </trkpt>
      <trkpt lat="45.86992" lon="2.98228">
        <ele>831.67</ele>
        <time>2013-06-10T09:03:09Z</time>
      </trkpt>
      <trkpt lat="45.87011" lon="2.98225">
        <ele>831.21</ele>
        <time>2013-06-10T09:03:16Z</time>
      </trkpt>
      <trkpt lat="45.8703" lon="2.98222">
        <ele>831.67</ele>
        <time>2013-06-10T09:03:24Z</time>
      </trkpt>
      <trkpt lat="45.87051" lon="2.98211">
        <ele>832.52</ele>
        <time>2013-06-10T09:03:29Z</time>
      </trkpt>
      <trkpt lat="45.8707" lon="2.98203">
        <ele>844.1</ele>
        <time>2013-06-10T09:03:36Z</time>
      </trkpt>
      <trkpt lat="45.87088" lon="2.98197">
        <ele>847.47</ele>
        <time>2013-06-10T09:03:41Z</time>
      </trkpt>
      <trkpt lat="45.87106" lon="2.98189">
        <ele>840.52</ele>
        <time>2013-06-10T09:04:09Z</time>
      </trkpt>
      <trkpt lat="45.87123" lon="2.98176">
        <ele>839.27</ele>
        <time>2013-06-10T09:04:15Z</time>
      </trkpt>
      <trkpt lat="45.87135" lon="2.98151">
        <ele>836.48</ele>
        <time>2013-06-10T09:04:18Z</time>
      </trkpt>
      <trkpt lat="45.87133" lon="2.98124">
        <ele>832.72</ele>
        <time>2013-06-10T09:04:21Z</time>
      </trkpt>
      <trkpt lat="45.87134" lon="2.98095">
        <ele>828.9</ele>
        <time>2013-06-10T09:04:26Z</time>
      </trkpt>
      <trkpt lat="45.87132" lon="2.9807">
        <ele>833.48</ele>
        <time>2013-06-10T09:04:35Z</time>
      </trkpt>
      <trkpt lat="45.87123" lon="2.98041">
        <ele>834.29</ele>
        <time>2013-06-10T09:04:40Z</time>
      </trkpt>
      <trkpt lat="45.87113" lon="2.98015">
        <ele>833.04</ele>
        <time>2013-06-10T09:04:45Z</time>
      </trkpt>
      <trkpt lat="45.8713" lon="2.98">
        <ele>837.7</ele>
        <time>2013-06-10T09:04:55Z</time>
      </trkpt>
      <trkpt lat="45.87147" lon="2.97992">
        <ele>837.47</ele>
        <time>2013-06-10T09:05:04Z</time>
      </trkpt>
      <trkpt lat="45.87167" lon="2.97999">
        <ele>836.97</ele>
        <time>2013-06-10T09:05:09Z</time>
      </trkpt>
      <trkpt lat="45.87186" lon="2.98008">
        <ele>841.09</ele>
        <time>2013-06-10T09:05:16Z</time>
      </trkpt>
      <trkpt lat="45.87206" lon="2.98016">
        <ele>844.52</ele>
        <time>2013-06-10T09:05:22Z</time>
      </trkpt>
      <trkpt lat="45.87225" lon="2.98021">
        <ele>843.7</ele>
        <time>2013-06-10T09:05:29Z</time>
      </trkpt>
      <trkpt lat="45.87247" lon="2.98019">
        <ele>842.96</ele>
        <time>2013-06-10T09:05:37Z</time>
      </trkpt>
      <trkpt lat="45.87264" lon="2.98028">
        <ele>840.78</ele>
        <time>2013-06-10T09:05:44Z</time>
      </trkpt>
      <trkpt lat="45.87282" lon="2.98033">
        <ele>841.01</ele>
        <time>2013-06-10T09:05:51Z</time>
      </trkpt>
      <trkpt lat="45.87302" lon="2.98041">
        <ele>839.45</ele>
        <time>2013-06-10T09:05:58Z</time>
      </trkpt>
      <trkpt lat="45.87319" lon="2.98051">
        <ele>835.09</ele>
        <time>2013-06-10T09:06:04Z</time>
      </trkpt>
      <trkpt lat="45.87337" lon="2.98061">
        <ele>834.6</ele>
        <time>2013-06-10T09:06:10Z</time>
      </trkpt>
      <trkpt lat="45.87357" lon="2.98063">
        <ele>834.88</ele>
        <time>2013-06-10T09:06:18Z</time>
      </trkpt>
      <trkpt lat="45.87376" lon="2.98071">
        <ele>837.41</ele>
        <time>2013-06-10T09:06:24Z</time>
      </trkpt>
      <trkpt lat="45.87394" lon="2.98081">
        <ele>838.87</ele>
        <time>2013-06-10T09:06:32Z</time>
      </trkpt>
      <trkpt lat="45.87413" lon="2.98086">
        <ele>834.91</ele>
        <time>2013-06-10T09:06:39Z</time>
      </trkpt>
      <trkpt lat="45.87433" lon="2.98088">
        <ele>829.83</ele>
        <time>2013-06-10T09:06:47Z</time>
      </trkpt>
      <trkpt lat="45.87452" lon="2.9809">
        <ele>825.64</ele>
        <time>2013-06-10T09:06:53Z</time>
      </trkpt>
      <trkpt lat="45.87471" lon="2.9809">
        <ele>823.59</ele>
        <time>2013-06-10T09:06:57Z</time>
      </trkpt>
      <trkpt lat="45.8749" lon="2.98091">
        <ele>822.94</ele>
        <time>2013-06-10T09:07:01Z</time>
      </trkpt>
      <trkpt lat="45.87512" lon="2.98091">
        <ele>824.41</ele>
        <time>2013-06-10T09:07:06Z</time>
      </trkpt>
      <trkpt lat="45.8753" lon="2.98091">
        <ele>825.47</ele>
        <time>2013-06-10T09:07:11Z</time>
      </trkpt>
      <trkpt lat="45.87551" lon="2.9809">
        <ele>825.55</ele>
        <time>2013-06-10T09:07:15Z</time>
      </trkpt>
      <trkpt lat="45.87569" lon="2.9808">
        <ele>808.49</ele>
        <time>2013-06-10T09:09:51Z</time>
      </trkpt>
      <trkpt lat="45.87587" lon="2.9809">
        <ele>807.46</ele>
        <time>2013-06-10T09:10:00Z</time>
      </trkpt>
      <trkpt lat="45.87607" lon="2.98094">
        <ele>805.83</ele>
        <time>2013-06-10T09:10:09Z</time>
      </trkpt>
      <trkpt lat="45.87626" lon="2.98091">
        <ele>804.18</ele>
        <time>2013-06-10T09:10:13Z</time>
      </trkpt>
      <trkpt lat="45.8765" lon="2.98091">
        <ele>802.86</ele>
        <time>2013-06-10T09:10:17Z</time>
      </trkpt>
      <trkpt lat="45.87669" lon="2.98092">
        <ele>801.95</ele>
        <time>2013-06-10T09:10:20Z</time>
      </trkpt>
      <trkpt lat="45.87689" lon="2.98087">
        <ele>800.93</ele>
        <time>2013-06-10T09:10:23Z</time>
      </trkpt>
      <trkpt lat="45.87707" lon="2.9808">
        <ele>800.3</ele>
        <time>2013-06-10T09:10:26Z</time>
      </trkpt>
      <trkpt lat="45.87729" lon="2.98072">
        <ele>799.9</ele>
        <time>2013-06-10T09:10:30Z</time>
      </trkpt>
      <trkpt lat="45.87747" lon="2.9808">
        <ele>799.83</ele>
        <time>2013-06-10T09:10:34Z</time>
      </trkpt>
      <trkpt lat="45.87763" lon="2.98097">
        <ele>798.93</ele>
        <time>2013-06-10T09:10:40Z</time>
      </trkpt>
      <trkpt lat="45.87778" lon="2.9811">
        <ele>798.62</ele>
        <time>2013-06-10T09:10:47Z</time>
      </trkpt>
      <trkpt lat="45.87796" lon="2.98127">
        <ele>798.71</ele>
        <time>2013-06-10T09:10:52Z</time>
      </trkpt>
      <trkpt lat="45.87815" lon="2.98142">
        <ele>798.24</ele>
        <time>2013-06-10T09:10:56Z</time>
      </trkpt>
      <trkpt lat="45.87833" lon="2.98158">
        <ele>798.04</ele>
        <time>2013-06-10T09:11:00Z</time>
      </trkpt>
      <trkpt lat="45.8785" lon="2.98176">
        <ele>796.97</ele>
        <time>2013-06-10T09:11:04Z</time>
      </trkpt>
      <trkpt lat="45.87864" lon="2.98192">
        <ele>799.19</ele>
        <time>2013-06-10T09:11:07Z</time>
      </trkpt>
      <trkpt lat="45.87881" lon="2.98208">
        <ele>801.06</ele>
        <time>2013-06-10T09:11:10Z</time>
      </trkpt>
      <trkpt lat="45.87899" lon="2.98221">
        <ele>802.3</ele>
        <time>2013-06-10T09:11:13Z</time>
      </trkpt>
      <trkpt lat="45.87918" lon="2.9823">
        <ele>803</ele>
        <time>2013-06-10T09:11:16Z</time>
      </trkpt>
      <trkpt lat="45.87937" lon="2.98241">
        <ele>803.73</ele>
        <time>2013-06-10T09:11:19Z</time>
      </trkpt>
      <trkpt lat="45.87958" lon="2.98249">
        <ele>804.01</ele>
        <time>2013-06-10T09:11:22Z</time>
      </trkpt>
      <trkpt lat="45.87976" lon="2.98253">
        <ele>804.45</ele>
        <time>2013-06-10T09:11:25Z</time>
      </trkpt>
      <trkpt lat="45.87995" lon="2.98255">
        <ele>806.31</ele>
        <time>2013-06-10T09:11:28Z</time>
      </trkpt>
      <trkpt lat="45.88018" lon="2.98255">
        <ele>805.63</ele>
        <time>2013-06-10T09:11:31Z</time>
      </trkpt>
      <trkpt lat="45.8804" lon="2.98256">
        <ele>804.01</ele>
        <time>2013-06-10T09:11:34Z</time>
      </trkpt>
      <trkpt lat="45.88062" lon="2.98259">
        <ele>800.61</ele>
        <time>2013-06-10T09:11:37Z</time>
      </trkpt>
      <trkpt lat="45.88082" lon="2.98261">
        <ele>797.52</ele>
        <time>2013-06-10T09:11:40Z</time>
      </trkpt>
      <trkpt lat="45.881" lon="2.98263">
        <ele>794.72</ele>
        <time>2013-06-10T09:11:43Z</time>
      </trkpt>
      <trkpt lat="45.88122" lon="2.98266">
        <ele>792.53</ele>
        <time>2013-06-10T09:11:47Z</time>
      </trkpt>
      <trkpt lat="45.88141" lon="2.98269">
        <ele>791.48</ele>
        <time>2013-06-10T09:11:51Z</time>
      </trkpt>
      <trkpt lat="45.88163" lon="2.98272">
        <ele>790.17</ele>
        <time>2013-06-10T09:11:56Z</time>
      </trkpt>
      <trkpt lat="45.88185" lon="2.98274">
        <ele>789.04</ele>
        <time>2013-06-10T09:12:01Z</time>
      </trkpt>
      <trkpt lat="45.88206" lon="2.98276">
        <ele>788.77</ele>
        <time>2013-06-10T09:12:06Z</time>
      </trkpt>
      <trkpt lat="45.88225" lon="2.98279">
        <ele>790.27</ele>
        <time>2013-06-10T09:12:12Z</time>
      </trkpt>
      <trkpt lat="45.88247" lon="2.98282">
        <ele>791.28</ele>
        <time>2013-06-10T09:12:19Z</time>
      </trkpt>
      <trkpt lat="45.88267" lon="2.98282">
        <ele>790.33</ele>
        <time>2013-06-10T09:12:25Z</time>
      </trkpt>
      <trkpt lat="45.88286" lon="2.98278">
        <ele>790.15</ele>
        <time>2013-06-10T09:12:30Z</time>
      </trkpt>
      <trkpt lat="45.88304" lon="2.98273">
        <ele>790.22</ele>
        <time>2013-06-10T09:12:35Z</time>
      </trkpt>
      <trkpt lat="45.88324" lon="2.98264">
        <ele>790.56</ele>
        <time>2013-06-10T09:12:41Z</time>
      </trkpt>
      <trkpt lat="45.88342" lon="2.98259">
        <ele>790.19</ele>
        <time>2013-06-10T09:12:46Z</time>
      </trkpt>
      <trkpt lat="45.88362" lon="2.98258">
        <ele>789.94</ele>
        <time>2013-06-10T09:12:52Z</time>
      </trkpt>
      <trkpt lat="45.8838" lon="2.98262">
        <ele>789.95</ele>
        <time>2013-06-10T09:12:58Z</time>
      </trkpt>
      <trkpt lat="45.88401" lon="2.98262">
        <ele>789.7</ele>
        <time>2013-06-10T09:13:07Z</time>
      </trkpt>
      <trkpt lat="45.88421" lon="2.9826">
        <ele>789.73</ele>
        <time>2013-06-10T09:13:15Z</time>
      </trkpt>
      <trkpt lat="45.88441" lon="2.98272">
        <ele>789.38</ele>
        <time>2013-06-10T09:13:21Z</time>
      </trkpt>
      <trkpt lat="45.8846" lon="2.98281">
        <ele>789.54</ele>
        <time>2013-06-10T09:13:26Z</time>
      </trkpt>
      <trkpt lat="45.88477" lon="2.98293">
        <ele>789.4</ele>
        <time>2013-06-10T09:13:31Z</time>
      </trkpt>
      <trkpt lat="45.88497" lon="2.98302">
        <ele>789.22</ele>
        <time>2013-06-10T09:13:35Z</time>
      </trkpt>
      <trkpt lat="45.88517" lon="2.98312">
        <ele>788.75</ele>
        <time>2013-06-10T09:13:39Z</time>
      </trkpt>
      <trkpt lat="45.88536" lon="2.98323">
        <ele>788.61</ele>
        <time>2013-06-10T09:13:43Z</time>
      </trkpt>
      <trkpt lat="45.88556" lon="2.9833">
        <ele>788.84</ele>
        <time>2013-06-10T09:13:47Z</time>
      </trkpt>
      <trkpt lat="45.88574" lon="2.98339">
        <ele>788.59</ele>
        <time>2013-06-10T09:13:51Z</time>
      </trkpt>
      <trkpt lat="45.88591" lon="2.98351">
        <ele>782.44</ele>
        <time>2013-06-10T09:14:33Z</time>
      </trkpt>
      <trkpt lat="45.8861" lon="2.98357">
        <ele>779.4</ele>
        <time>2013-06-10T09:15:32Z</time>
      </trkpt>
      <trkpt lat="45.88627" lon="2.98365">
        <ele>779.01</ele>
        <time>2013-06-10T09:15:36Z</time>
      </trkpt>
      <trkpt lat="45.88646" lon="2.98375">
        <ele>778.72</ele>
        <time>2013-06-10T09:15:40Z</time>
      </trkpt>
      <trkpt lat="45.88667" lon="2.98388">
        <ele>777.97</ele>
        <time>2013-06-10T09:15:44Z</time>
      </trkpt>
      <trkpt lat="45.88688" lon="2.98403">
        <ele>777.13</ele>
        <time>2013-06-10T09:15:48Z</time>
      </trkpt>
      <trkpt lat="45.88703" lon="2.98418">
        <ele>777.03</ele>
        <time>2013-06-10T09:15:51Z</time>
      </trkpt>
      <trkpt lat="45.88718" lon="2.98435">
        <ele>776.58</ele>
        <time>2013-06-10T09:15:54Z</time>
      </trkpt>
      <trkpt lat="45.88739" lon="2.98442">
        <ele>775.09</ele>
        <time>2013-06-10T09:15:57Z</time>
      </trkpt>
      <trkpt lat="45.88763" lon="2.9845">
        <ele>773.53</ele>
        <time>2013-06-10T09:16:00Z</time>
      </trkpt>
      <trkpt lat="45.88787" lon="2.98457">
        <ele>772.42</ele>
        <time>2013-06-10T09:16:03Z</time>
      </trkpt>
      <trkpt lat="45.88809" lon="2.98463">
        <ele>771.76</ele>
        <time>2013-06-10T09:16:06Z</time>
      </trkpt>
      <trkpt lat="45.88827" lon="2.98469">
        <ele>771.57</ele>
        <time>2013-06-10T09:16:09Z</time>
      </trkpt>
      <trkpt lat="45.88849" lon="2.98475">
        <ele>772</ele>
        <time>2013-06-10T09:16:13Z</time>
      </trkpt>
      <trkpt lat="45.88868" lon="2.98483">
        <ele>772.84</ele>
        <time>2013-06-10T09:16:18Z</time>
      </trkpt>
      <trkpt lat="45.88885" lon="2.98489">
        <ele>773.67</ele>
        <time>2013-06-10T09:16:23Z</time>
      </trkpt>
      <trkpt lat="45.88904" lon="2.985">
        <ele>775.28</ele>
        <time>2013-06-10T09:16:29Z</time>
      </trkpt>
      <trkpt lat="45.88923" lon="2.98515">
        <ele>776.69</ele>
        <time>2013-06-10T09:16:35Z</time>
      </trkpt>
      <trkpt lat="45.8894" lon="2.9853">
        <ele>777.52</ele>
        <time>2013-06-10T09:16:41Z</time>
      </trkpt>
      <trkpt lat="45.88956" lon="2.98545">
        <ele>778.42</ele>
        <time>2013-06-10T09:16:47Z</time>
      </trkpt>
      <trkpt lat="45.88974" lon="2.98558">
        <ele>778.83</ele>
        <time>2013-06-10T09:16:53Z</time>
      </trkpt>
      <trkpt lat="45.88993" lon="2.9857">
        <ele>779.41</ele>
        <time>2013-06-10T09:16:59Z</time>
      </trkpt>
      <trkpt lat="45.89013" lon="2.98575">
        <ele>779.86</ele>
        <time>2013-06-10T09:17:05Z</time>
      </trkpt>
      <trkpt lat="45.89032" lon="2.98585">
        <ele>780.9</ele>
        <time>2013-06-10T09:17:11Z</time>
      </trkpt>
      <trkpt lat="45.89051" lon="2.98596">
        <ele>783.27</ele>
        <time>2013-06-10T09:17:18Z</time>
      </trkpt>
      <trkpt lat="45.8907" lon="2.98602">
        <ele>784.3</ele>
        <time>2013-06-10T09:17:24Z</time>
      </trkpt>
      <trkpt lat="45.89089" lon="2.98609">
        <ele>784.3</ele>
        <time>2013-06-10T09:17:30Z</time>
      </trkpt>
      <trkpt lat="45.8911" lon="2.98618">
        <ele>784.36</ele>
        <time>2013-06-10T09:17:36Z</time>
      </trkpt>
      <trkpt lat="45.89128" lon="2.98623">
        <ele>784.22</ele>
        <time>2013-06-10T09:17:40Z</time>
      </trkpt>
      <trkpt lat="45.89146" lon="2.98627">
        <ele>784.3</ele>
        <time>2013-06-10T09:17:45Z</time>
      </trkpt>
      <trkpt lat="45.89702" lon="2.98809">
        <ele>790.03</ele>
        <time>2013-06-10T09:21:02Z</time>
      </trkpt>
      <trkpt lat="45.89686" lon="2.98794">
        <ele>790.69</ele>
        <time>2013-06-10T09:21:16Z</time>
      </trkpt>
      <trkpt lat="45.89703" lon="2.98809">
        <ele>790.73</ele>
        <time>2013-06-10T09:22:36Z</time>
      </trkpt>
      <trkpt lat="45.89722" lon="2.98821">
        <ele>790.66</ele>
        <time>2013-06-10T09:22:42Z</time>
      </trkpt>
      <trkpt lat="45.89745" lon="2.98832">
        <ele>788.73</ele>
        <time>2013-06-10T09:22:46Z</time>
      </trkpt>
      <trkpt lat="45.89766" lon="2.98841">
        <ele>787.24</ele>
        <time>2013-06-10T09:22:49Z</time>
      </trkpt>
      <trkpt lat="45.89785" lon="2.98849">
        <ele>785.73</ele>
        <time>2013-06-10T09:22:52Z</time>
      </trkpt>
      <trkpt lat="45.89805" lon="2.98856">
        <ele>784.55</ele>
        <time>2013-06-10T09:22:55Z</time>
      </trkpt>
      <trkpt lat="45.89826" lon="2.98862">
        <ele>783.61</ele>
        <time>2013-06-10T09:22:58Z</time>
      </trkpt>
      <trkpt lat="45.89847" lon="2.98871">
        <ele>782.7</ele>
        <time>2013-06-10T09:23:01Z</time>
      </trkpt>
      <trkpt lat="45.89869" lon="2.98882">
        <ele>781.9</ele>
        <time>2013-06-10T09:23:04Z</time>
      </trkpt>
      <trkpt lat="45.89892" lon="2.98891">
        <ele>780.97</ele>
        <time>2013-06-10T09:23:07Z</time>
      </trkpt>
      <trkpt lat="45.89912" lon="2.98901">
        <ele>781.16</ele>
        <time>2013-06-10T09:23:10Z</time>
      </trkpt>
      <trkpt lat="45.89934" lon="2.98912">
        <ele>781.98</ele>
        <time>2013-06-10T09:23:13Z</time>
      </trkpt>
      <trkpt lat="45.89956" lon="2.98916">
        <ele>782.96</ele>
        <time>2013-06-10T09:23:16Z</time>
      </trkpt>
      <trkpt lat="45.89979" lon="2.98921">
        <ele>783.73</ele>
        <time>2013-06-10T09:23:19Z</time>
      </trkpt>
      <trkpt lat="45.89998" lon="2.9892">
        <ele>783.76</ele>
        <time>2013-06-10T09:23:21Z</time>
      </trkpt>
      <trkpt lat="45.90023" lon="2.98919">
        <ele>782.47</ele>
        <time>2013-06-10T09:23:24Z</time>
      </trkpt>
      <trkpt lat="45.90048" lon="2.98911">
        <ele>780.53</ele>
        <time>2013-06-10T09:23:27Z</time>
      </trkpt>
      <trkpt lat="45.90073" lon="2.98905">
        <ele>778.59</ele>
        <time>2013-06-10T09:23:30Z</time>
      </trkpt>
      <trkpt lat="45.90095" lon="2.98896">
        <ele>776.75</ele>
        <time>2013-06-10T09:23:33Z</time>
      </trkpt>
      <trkpt lat="45.9011" lon="2.9888">
        <ele>775.99</ele>
        <time>2013-06-10T09:23:36Z</time>
      </trkpt>
      <trkpt lat="45.90125" lon="2.98859">
        <ele>774.82</ele>
        <time>2013-06-10T09:23:40Z</time>
      </trkpt>
      <trkpt lat="45.90138" lon="2.98841">
        <ele>773.99</ele>
        <time>2013-06-10T09:23:44Z</time>
      </trkpt>
      <trkpt lat="45.90152" lon="2.98818">
        <ele>773.83</ele>
        <time>2013-06-10T09:23:49Z</time>
      </trkpt>
      <trkpt lat="45.90168" lon="2.98796">
        <ele>773.62</ele>
        <time>2013-06-10T09:23:54Z</time>
      </trkpt>
      <trkpt lat="45.90183" lon="2.98775">
        <ele>773.48</ele>
        <time>2013-06-10T09:23:59Z</time>
      </trkpt>
      <trkpt lat="45.90198" lon="2.98755">
        <ele>773.03</ele>
        <time>2013-06-10T09:24:04Z</time>
      </trkpt>
      <trkpt lat="45.90213" lon="2.98735">
        <ele>772.34</ele>
        <time>2013-06-10T09:24:10Z</time>
      </trkpt>
      <trkpt lat="45.90229" lon="2.98714">
        <ele>770.78</ele>
        <time>2013-06-10T09:24:16Z</time>
      </trkpt>
      <trkpt lat="45.90238" lon="2.98691">
        <ele>769.61</ele>
        <time>2013-06-10T09:24:20Z</time>
      </trkpt>
      <trkpt lat="45.90232" lon="2.98663">
        <ele>770.46</ele>
        <time>2013-06-10T09:24:26Z</time>
      </trkpt>
      <trkpt lat="45.90234" lon="2.98633">
        <ele>769.21</ele>
        <time>2013-06-10T09:24:36Z</time>
      </trkpt>
      <trkpt lat="45.90246" lon="2.98611">
        <ele>768.61</ele>
        <time>2013-06-10T09:24:44Z</time>
      </trkpt>
      <trkpt lat="45.90252" lon="2.98587">
        <ele>768.8</ele>
        <time>2013-06-10T09:24:52Z</time>
      </trkpt>
      <trkpt lat="45.9027" lon="2.9858">
        <ele>767.04</ele>
        <time>2013-06-10T09:25:06Z</time>
      </trkpt>
      <trkpt lat="45.90286" lon="2.98564">
        <ele>767.1</ele>
        <time>2013-06-10T09:25:12Z</time>
      </trkpt>
      <trkpt lat="45.90306" lon="2.98553">
        <ele>769.07</ele>
        <time>2013-06-10T09:25:17Z</time>
      </trkpt>
      <trkpt lat="45.90324" lon="2.98546">
        <ele>769.64</ele>
        <time>2013-06-10T09:25:24Z</time>
      </trkpt>
      <trkpt lat="45.90335" lon="2.98525">
        <ele>766.46</ele>
        <time>2013-06-10T09:25:57Z</time>
      </trkpt>
      <trkpt lat="45.90339" lon="2.98499">
        <ele>767.41</ele>
        <time>2013-06-10T09:26:43Z</time>
      </trkpt>
      <trkpt lat="45.90357" lon="2.98488">
        <ele>769.32</ele>
        <time>2013-06-10T09:26:52Z</time>
      </trkpt>
      <trkpt lat="45.90338" lon="2.98494">
        <ele>768.65</ele>
        <time>2013-06-10T09:27:08Z</time>
      </trkpt>
      <trkpt lat="45.90334" lon="2.98519">
        <ele>768.96</ele>
        <time>2013-06-10T09:27:13Z</time>
      </trkpt>
      <trkpt lat="45.90321" lon="2.9854">
        <ele>768.8</ele>
        <time>2013-06-10T09:27:19Z</time>
      </trkpt>
      <trkpt lat="45.90304" lon="2.98548">
        <ele>768.45</ele>
        <time>2013-06-10T09:27:25Z</time>
      </trkpt>
      <trkpt lat="45.90284" lon="2.98556">
        <ele>768.25</ele>
        <time>2013-06-10T09:27:31Z</time>
      </trkpt>
      <trkpt lat="45.90273" lon="2.98576">
        <ele>769.56</ele>
        <time>2013-06-10T09:27:38Z</time>
      </trkpt>
      <trkpt lat="45.90261" lon="2.98597">
        <ele>774.72</ele>
        <time>2013-06-10T09:27:46Z</time>
      </trkpt>
      <trkpt lat="45.90252" lon="2.98621">
        <ele>774.48</ele>
        <time>2013-06-10T09:27:53Z</time>
      </trkpt>
      <trkpt lat="45.9024" lon="2.98643">
        <ele>774.2</ele>
        <time>2013-06-10T09:27:58Z</time>
      </trkpt>
      <trkpt lat="45.90232" lon="2.98668">
        <ele>778.32</ele>
        <time>2013-06-10T09:28:06Z</time>
      </trkpt>
      <trkpt lat="45.90235" lon="2.98694">
        <ele>781.08</ele>
        <time>2013-06-10T09:28:50Z</time>
      </trkpt>
      <trkpt lat="45.90232" lon="2.98667">
        <ele>775.58</ele>
        <time>2013-06-10T09:29:00Z</time>
      </trkpt>
      <trkpt lat="45.90231" lon="2.98638">
        <ele>774.6</ele>
        <time>2013-06-10T09:29:09Z</time>
      </trkpt>
      <trkpt lat="45.90231" lon="2.98611">
        <ele>774.91</ele>
        <time>2013-06-10T09:29:15Z</time>
      </trkpt>
      <trkpt lat="45.90231" lon="2.98584">
        <ele>772.42</ele>
        <time>2013-06-10T09:29:22Z</time>
      </trkpt>
      <trkpt lat="45.90229" lon="2.98557">
        <ele>771.83</ele>
        <time>2013-06-10T09:29:33Z</time>
      </trkpt>
      <trkpt lat="45.90224" lon="2.98532">
        <ele>773.07</ele>
        <time>2013-06-10T09:29:46Z</time>
      </trkpt>
      <trkpt lat="45.90221" lon="2.98507">
        <ele>773.87</ele>
        <time>2013-06-10T09:29:58Z</time>
      </trkpt>
      <trkpt lat="45.90217" lon="2.98481">
        <ele>774.5</ele>
        <time>2013-06-10T09:30:10Z</time>
      </trkpt>
      <trkpt lat="45.90213" lon="2.98455">
        <ele>776.35</ele>
        <time>2013-06-10T09:30:23Z</time>
      </trkpt>
      <trkpt lat="45.90212" lon="2.98429">
        <ele>778.36</ele>
        <time>2013-06-10T09:30:36Z</time>
      </trkpt>
      <trkpt lat="45.90207" lon="2.98404">
        <ele>780.13</ele>
        <time>2013-06-10T09:30:50Z</time>
      </trkpt>
      <trkpt lat="45.90206" lon="2.98375">
        <ele>783.53</ele>
        <time>2013-06-10T09:31:06Z</time>
      </trkpt>
      <trkpt lat="45.90201" lon="2.98351">
        <ele>786.82</ele>
        <time>2013-06-10T09:31:35Z</time>
      </trkpt>
      <trkpt lat="45.90193" lon="2.98327">
        <ele>784.98</ele>
        <time>2013-06-10T09:31:59Z</time>
      </trkpt>
      <trkpt lat="45.90183" lon="2.98304">
        <ele>787.63</ele>
        <time>2013-06-10T09:32:23Z</time>
      </trkpt>
      <trkpt lat="45.90172" lon="2.98283">
        <ele>788.92</ele>
        <time>2013-06-10T09:32:49Z</time>
      </trkpt>
      <trkpt lat="45.90161" lon="2.98262">
        <ele>789.71</ele>
        <time>2013-06-10T09:32:59Z</time>
      </trkpt>
      <trkpt lat="45.90149" lon="2.98239">
        <ele>788.78</ele>
        <time>2013-06-10T09:33:09Z</time>
      </trkpt>
      <trkpt lat="45.90136" lon="2.9822">
        <ele>788.15</ele>
        <time>2013-06-10T09:33:23Z</time>
      </trkpt>
      <trkpt lat="45.90123" lon="2.98199">
        <ele>786.79</ele>
        <time>2013-06-10T09:33:30Z</time>
      </trkpt>
      <trkpt lat="45.90114" lon="2.98175">
        <ele>785.65</ele>
        <time>2013-06-10T09:33:35Z</time>
      </trkpt>
      <trkpt lat="45.90102" lon="2.98153">
        <ele>785.02</ele>
        <time>2013-06-10T09:33:42Z</time>
      </trkpt>
      <trkpt lat="45.90087" lon="2.98133">
        <ele>782.91</ele>
        <time>2013-06-10T09:33:48Z</time>
      </trkpt>
      <trkpt lat="45.90079" lon="2.98106">
        <ele>783.65</ele>
        <time>2013-06-10T09:33:53Z</time>
      </trkpt>
      <trkpt lat="45.90062" lon="2.98094">
        <ele>786.4</ele>
        <time>2013-06-10T09:33:57Z</time>
      </trkpt>
      <trkpt lat="45.90046" lon="2.9807">
        <ele>787.72</ele>
        <time>2013-06-10T09:34:01Z</time>
      </trkpt>
      <trkpt lat="45.90064" lon="2.98057">
        <ele>783.62</ele>
        <time>2013-06-10T09:34:21Z</time>
      </trkpt>
      <trkpt lat="45.90075" lon="2.98029">
        <ele>780.87</ele>
        <time>2013-06-10T09:34:26Z</time>
      </trkpt>
      <trkpt lat="45.90083" lon="2.98">
        <ele>779.69</ele>
        <time>2013-06-10T09:34:30Z</time>
      </trkpt>
      <trkpt lat="45.90088" lon="2.97969">
        <ele>779.06</ele>
        <time>2013-06-10T09:34:34Z</time>
      </trkpt>
      <trkpt lat="45.90094" lon="2.97943">
        <ele>779.52</ele>
        <time>2013-06-10T09:34:38Z</time>
      </trkpt>
      <trkpt lat="45.90098" lon="2.97913">
        <ele>780.88</ele>
        <time>2013-06-10T09:34:43Z</time>
      </trkpt>
      <trkpt lat="45.90102" lon="2.97884">
        <ele>783.34</ele>
        <time>2013-06-10T09:34:49Z</time>
      </trkpt>
      <trkpt lat="45.90109" lon="2.97858">
        <ele>786.3</ele>
        <time>2013-06-10T09:34:55Z</time>
      </trkpt>
      <trkpt lat="45.90115" lon="2.9783">
        <ele>787.74</ele>
        <time>2013-06-10T09:35:03Z</time>
      </trkpt>
      <trkpt lat="45.90125" lon="2.97805">
        <ele>788.88</ele>
        <time>2013-06-10T09:35:11Z</time>
      </trkpt>
      <trkpt lat="45.90131" lon="2.97781">
        <ele>789.46</ele>
        <time>2013-06-10T09:35:18Z</time>
      </trkpt>
      <trkpt lat="45.90141" lon="2.97758">
        <ele>790.58</ele>
        <time>2013-06-10T09:35:26Z</time>
      </trkpt>
      <trkpt lat="45.90143" lon="2.97732">
        <ele>790.71</ele>
        <time>2013-06-10T09:35:40Z</time>
      </trkpt>
      <trkpt lat="45.90135" lon="2.97706">
        <ele>785.08</ele>
        <time>2013-06-10T09:42:07Z</time>
      </trkpt>
      <trkpt lat="45.90128" lon="2.97678">
        <ele>785.08</ele>
        <time>2013-06-10T09:42:13Z</time>
      </trkpt>
      <trkpt lat="45.90121" lon="2.9765">
        <ele>785.07</ele>
        <time>2013-06-10T09:42:18Z</time>
      </trkpt>
      <trkpt lat="45.90114" lon="2.97621">
        <ele>784.93</ele>
        <time>2013-06-10T09:42:23Z</time>
      </trkpt>
      <trkpt lat="45.90106" lon="2.97592">
        <ele>784.88</ele>
        <time>2013-06-10T09:42:28Z</time>
      </trkpt>
      <trkpt lat="45.90099" lon="2.97567">
        <ele>784.95</ele>
        <time>2013-06-10T09:42:32Z</time>
      </trkpt>
      <trkpt lat="45.90091" lon="2.97542">
        <ele>785.11</ele>
        <time>2013-06-10T09:42:36Z</time>
      </trkpt>
      <trkpt lat="45.90085" lon="2.97518">
        <ele>785.13</ele>
        <time>2013-06-10T09:42:40Z</time>
      </trkpt>
      <trkpt lat="45.90077" lon="2.97488">
        <ele>785.15</ele>
        <time>2013-06-10T09:42:45Z</time>
      </trkpt>
      <trkpt lat="45.90072" lon="2.97461">
        <ele>785</ele>
        <time>2013-06-10T09:42:50Z</time>
      </trkpt>
      <trkpt lat="45.9007" lon="2.97435">
        <ele>785.01</ele>
        <time>2013-06-10T09:42:55Z</time>
      </trkpt>
      <trkpt lat="45.90064" lon="2.9741">
        <ele>783.56</ele>
        <time>2013-06-10T09:43:01Z</time>
      </trkpt>
      <trkpt lat="45.90084" lon="2.97408">
        <ele>785.27</ele>
        <time>2013-06-10T09:43:33Z</time>
      </trkpt>
      <trkpt lat="45.90099" lon="2.97393">
        <ele>786.29</ele>
        <time>2013-06-10T09:43:42Z</time>
      </trkpt>
      <trkpt lat="45.90115" lon="2.97378">
        <ele>787.32</ele>
        <time>2013-06-10T09:43:50Z</time>
      </trkpt>
      <trkpt lat="45.90133" lon="2.97368">
        <ele>788.32</ele>
        <time>2013-06-10T09:43:57Z</time>
      </trkpt>
      <trkpt lat="45.90154" lon="2.97364">
        <ele>789.41</ele>
        <time>2013-06-10T09:44:03Z</time>
      </trkpt>
      <trkpt lat="45.90174" lon="2.9737">
        <ele>789.09</ele>
        <time>2013-06-10T09:44:09Z</time>
      </trkpt>
      <trkpt lat="45.90191" lon="2.97382">
        <ele>787.18</ele>
        <time>2013-06-10T09:44:14Z</time>
      </trkpt>
      <trkpt lat="45.90211" lon="2.97384">
        <ele>786.74</ele>
        <time>2013-06-10T09:44:20Z</time>
      </trkpt>
      <trkpt lat="45.9023" lon="2.97376">
        <ele>793.4</ele>
        <time>2013-06-10T09:44:30Z</time>
      </trkpt>
      <trkpt lat="45.90247" lon="2.97362">
        <ele>797.09</ele>
        <time>2013-06-10T09:44:37Z</time>
      </trkpt>
      <trkpt lat="45.90265" lon="2.97352">
        <ele>798.74</ele>
        <time>2013-06-10T09:44:44Z</time>
      </trkpt>
      <trkpt lat="45.90281" lon="2.97338">
        <ele>798.71</ele>
        <time>2013-06-10T09:44:50Z</time>
      </trkpt>
      <trkpt lat="45.90295" lon="2.9732">
        <ele>800.09</ele>
        <time>2013-06-10T09:44:57Z</time>
      </trkpt>
      <trkpt lat="45.90311" lon="2.97307">
        <ele>801.06</ele>
        <time>2013-06-10T09:45:04Z</time>
      </trkpt>
      <trkpt lat="45.90329" lon="2.97294">
        <ele>803.16</ele>
        <time>2013-06-10T09:45:10Z</time>
      </trkpt>
      <trkpt lat="45.90345" lon="2.97284">
        <ele>803.75</ele>
        <time>2013-06-10T09:45:16Z</time>
      </trkpt>
      <trkpt lat="45.90362" lon="2.97269">
        <ele>805.45</ele>
        <time>2013-06-10T09:45:24Z</time>
      </trkpt>
      <trkpt lat="45.90377" lon="2.97255">
        <ele>807.95</ele>
        <time>2013-06-10T09:45:29Z</time>
      </trkpt>
      <trkpt lat="45.90396" lon="2.9724">
        <ele>806.22</ele>
        <time>2013-06-10T09:45:35Z</time>
      </trkpt>
      <trkpt lat="45.90414" lon="2.97224">
        <ele>804.31</ele>
        <time>2013-06-10T09:45:40Z</time>
      </trkpt>
      <trkpt lat="45.90428" lon="2.972">
        <ele>802.03</ele>
        <time>2013-06-10T09:45:44Z</time>
      </trkpt>
      <trkpt lat="45.90443" lon="2.97182">
        <ele>800.32</ele>
        <time>2013-06-10T09:45:48Z</time>
      </trkpt>
      <trkpt lat="45.90455" lon="2.97156">
        <ele>797.79</ele>
        <time>2013-06-10T09:45:53Z</time>
      </trkpt>
      <trkpt lat="45.90457" lon="2.97127">
        <ele>795.49</ele>
        <time>2013-06-10T09:46:00Z</time>
      </trkpt>
      <trkpt lat="45.90447" lon="2.97103">
        <ele>792.07</ele>
        <time>2013-06-10T09:46:05Z</time>
      </trkpt>
      <trkpt lat="45.90434" lon="2.9708">
        <ele>789.13</ele>
        <time>2013-06-10T09:46:11Z</time>
      </trkpt>
      <trkpt lat="45.90422" lon="2.9706">
        <ele>788.22</ele>
        <time>2013-06-10T09:46:16Z</time>
      </trkpt>
      <trkpt lat="45.9041" lon="2.97037">
        <ele>788.21</ele>
        <time>2013-06-10T09:46:24Z</time>
      </trkpt>
      <trkpt lat="45.904" lon="2.97013">
        <ele>788.22</ele>
        <time>2013-06-10T09:46:30Z</time>
      </trkpt>
      <trkpt lat="45.9039" lon="2.96988">
        <ele>788.95</ele>
        <time>2013-06-10T09:46:37Z</time>
      </trkpt>
      <trkpt lat="45.90381" lon="2.96964">
        <ele>789.72</ele>
        <time>2013-06-10T09:46:44Z</time>
      </trkpt>
      <trkpt lat="45.90372" lon="2.96937">
        <ele>790.22</ele>
        <time>2013-06-10T09:46:51Z</time>
      </trkpt>
      <trkpt lat="45.90361" lon="2.96916">
        <ele>790.45</ele>
        <time>2013-06-10T09:46:57Z</time>
      </trkpt>
      <trkpt lat="45.90348" lon="2.96897">
        <ele>790.35</ele>
        <time>2013-06-10T09:47:03Z</time>
      </trkpt>
      <trkpt lat="45.90331" lon="2.96881">
        <ele>790.34</ele>
        <time>2013-06-10T09:47:10Z</time>
      </trkpt>
      <trkpt lat="45.90312" lon="2.96872">
        <ele>790.51</ele>
        <time>2013-06-10T09:47:16Z</time>
      </trkpt>
      <trkpt lat="45.90294" lon="2.96863">
        <ele>792.19</ele>
        <time>2013-06-10T09:47:22Z</time>
      </trkpt>
      <trkpt lat="45.90275" lon="2.9685">
        <ele>794.48</ele>
        <time>2013-06-10T09:47:30Z</time>
      </trkpt>
      <trkpt lat="45.90261" lon="2.96834">
        <ele>794.68</ele>
        <time>2013-06-10T09:47:33Z</time>
      </trkpt>
      <trkpt lat="45.90245" lon="2.96817">
        <ele>795.13</ele>
        <time>2013-06-10T09:47:36Z</time>
      </trkpt>
      <trkpt lat="45.90237" lon="2.96791">
        <ele>795.64</ele>
        <time>2013-06-10T09:47:40Z</time>
      </trkpt>
      <trkpt lat="45.90246" lon="2.96763">
        <ele>794.87</ele>
        <time>2013-06-10T09:47:45Z</time>
      </trkpt>
      <trkpt lat="45.90259" lon="2.96741">
        <ele>795.04</ele>
        <time>2013-06-10T09:47:51Z</time>
      </trkpt>
      <trkpt lat="45.90276" lon="2.96723">
        <ele>794.9</ele>
        <time>2013-06-10T09:47:57Z</time>
      </trkpt>
      <trkpt lat="45.90292" lon="2.96704">
        <ele>795.92</ele>
        <time>2013-06-10T09:48:03Z</time>
      </trkpt>
      <trkpt lat="45.90303" lon="2.9668">
        <ele>795.41</ele>
        <time>2013-06-10T09:48:08Z</time>
      </trkpt>
      <trkpt lat="45.90315" lon="2.9666">
        <ele>794.87</ele>
        <time>2013-06-10T09:48:12Z</time>
      </trkpt>
      <trkpt lat="45.90329" lon="2.96643">
        <ele>792.78</ele>
        <time>2013-06-10T09:48:17Z</time>
      </trkpt>
      <trkpt lat="45.9034" lon="2.96622">
        <ele>790.2</ele>
        <time>2013-06-10T09:48:23Z</time>
      </trkpt>
      <trkpt lat="45.9035" lon="2.96597">
        <ele>789.68</ele>
        <time>2013-06-10T09:48:31Z</time>
      </trkpt>
      <trkpt lat="45.90353" lon="2.9657">
        <ele>789.11</ele>
        <time>2013-06-10T09:48:37Z</time>
      </trkpt>
      <trkpt lat="45.90349" lon="2.96545">
        <ele>788.36</ele>
        <time>2013-06-10T09:48:43Z</time>
      </trkpt>
      <trkpt lat="45.90342" lon="2.9652">
        <ele>789</ele>
        <time>2013-06-10T09:48:51Z</time>
      </trkpt>
      <trkpt lat="45.90339" lon="2.96493">
        <ele>791.51</ele>
        <time>2013-06-10T09:49:01Z</time>
      </trkpt>
      <trkpt lat="45.90322" lon="2.96477">
        <ele>792.64</ele>
        <time>2013-06-10T09:49:15Z</time>
      </trkpt>
      <trkpt lat="45.90303" lon="2.96465">
        <ele>793.18</ele>
        <time>2013-06-10T09:49:22Z</time>
      </trkpt>
      <trkpt lat="45.90285" lon="2.96454">
        <ele>794.13</ele>
        <time>2013-06-10T09:49:29Z</time>
      </trkpt>
      <trkpt lat="45.90266" lon="2.96447">
        <ele>795.21</ele>
        <time>2013-06-10T09:49:41Z</time>
      </trkpt>
      <trkpt lat="45.90278" lon="2.96426">
        <ele>797.44</ele>
        <time>2013-06-10T09:50:46Z</time>
      </trkpt>
      <trkpt lat="45.90273" lon="2.96398">
        <ele>796.87</ele>
        <time>2013-06-10T09:50:50Z</time>
      </trkpt>
      <trkpt lat="45.90266" lon="2.96372">
        <ele>796.46</ele>
        <time>2013-06-10T09:50:54Z</time>
      </trkpt>
      <trkpt lat="45.90262" lon="2.96347">
        <ele>796.24</ele>
        <time>2013-06-10T09:51:00Z</time>
      </trkpt>
      <trkpt lat="45.90266" lon="2.96375">
        <ele>796.83</ele>
        <time>2013-06-10T09:51:11Z</time>
      </trkpt>
      <trkpt lat="45.90274" lon="2.964">
        <ele>797.29</ele>
        <time>2013-06-10T09:51:33Z</time>
      </trkpt>
      <trkpt lat="45.90281" lon="2.96426">
        <ele>797.34</ele>
        <time>2013-06-10T09:51:42Z</time>
      </trkpt>
      <trkpt lat="45.90273" lon="2.964">
        <ele>796.82</ele>
        <time>2013-06-10T09:51:56Z</time>
      </trkpt>
      <trkpt lat="45.90267" lon="2.96375">
        <ele>796.81</ele>
        <time>2013-06-10T09:52:00Z</time>
      </trkpt>
      <trkpt lat="45.90262" lon="2.9635">
        <ele>796.91</ele>
        <time>2013-06-10T09:52:04Z</time>
      </trkpt>
      <trkpt lat="45.90257" lon="2.9632">
        <ele>797.16</ele>
        <time>2013-06-10T09:52:09Z</time>
      </trkpt>
      <trkpt lat="45.90252" lon="2.96295">
        <ele>796.97</ele>
        <time>2013-06-10T09:52:13Z</time>
      </trkpt>
      <trkpt lat="45.90247" lon="2.96269">
        <ele>796.99</ele>
        <time>2013-06-10T09:52:18Z</time>
      </trkpt>
      <trkpt lat="45.90242" lon="2.96242">
        <ele>797.06</ele>
        <time>2013-06-10T09:52:24Z</time>
      </trkpt>
      <trkpt lat="45.90237" lon="2.96217">
        <ele>796.99</ele>
        <time>2013-06-10T09:52:30Z</time>
      </trkpt>
      <trkpt lat="45.90234" lon="2.96186">
        <ele>797.4</ele>
        <time>2013-06-10T09:52:36Z</time>
      </trkpt>
      <trkpt lat="45.90232" lon="2.96155">
        <ele>798.08</ele>
        <time>2013-06-10T09:52:41Z</time>
      </trkpt>
      <trkpt lat="45.9023" lon="2.96126">
        <ele>798.87</ele>
        <time>2013-06-10T09:52:46Z</time>
      </trkpt>
      <trkpt lat="45.90228" lon="2.96099">
        <ele>799.74</ele>
        <time>2013-06-10T09:52:51Z</time>
      </trkpt>
      <trkpt lat="45.90228" lon="2.96073">
        <ele>800.54</ele>
        <time>2013-06-10T09:52:56Z</time>
      </trkpt>
      <trkpt lat="45.90229" lon="2.96047">
        <ele>800.93</ele>
        <time>2013-06-10T09:53:01Z</time>
      </trkpt>
      <trkpt lat="45.90229" lon="2.96019">
        <ele>801.44</ele>
        <time>2013-06-10T09:53:07Z</time>
      </trkpt>
      <trkpt lat="45.90229" lon="2.95991">
        <ele>801.85</ele>
        <time>2013-06-10T09:53:12Z</time>
      </trkpt>
      <trkpt lat="45.90231" lon="2.9596">
        <ele>802.17</ele>
        <time>2013-06-10T09:53:18Z</time>
      </trkpt>
      <trkpt lat="45.90232" lon="2.95934">
        <ele>802.33</ele>
        <time>2013-06-10T09:53:23Z</time>
      </trkpt>
      <trkpt lat="45.90233" lon="2.95903">
        <ele>802.55</ele>
        <time>2013-06-10T09:53:29Z</time>
      </trkpt>
      <trkpt lat="45.90235" lon="2.95877">
        <ele>802.85</ele>
        <time>2013-06-10T09:53:34Z</time>
      </trkpt>
      <trkpt lat="45.90236" lon="2.95848">
        <ele>803.23</ele>
        <time>2013-06-10T09:53:40Z</time>
      </trkpt>
      <trkpt lat="45.9024" lon="2.9582">
        <ele>803.33</ele>
        <time>2013-06-10T09:53:46Z</time>
      </trkpt>
      <trkpt lat="45.90245" lon="2.95793">
        <ele>803.42</ele>
        <time>2013-06-10T09:53:51Z</time>
      </trkpt>
      <trkpt lat="45.9025" lon="2.95767">
        <ele>803.49</ele>
        <time>2013-06-10T09:53:56Z</time>
      </trkpt>
      <trkpt lat="45.90253" lon="2.9574">
        <ele>803.78</ele>
        <time>2013-06-10T09:54:01Z</time>
      </trkpt>
      <trkpt lat="45.90247" lon="2.95712">
        <ele>803.79</ele>
        <time>2013-06-10T09:54:06Z</time>
      </trkpt>
      <trkpt lat="45.90236" lon="2.95691">
        <ele>803.67</ele>
        <time>2013-06-10T09:54:11Z</time>
      </trkpt>
      <trkpt lat="45.90222" lon="2.95674">
        <ele>803.88</ele>
        <time>2013-06-10T09:54:16Z</time>
      </trkpt>
      <trkpt lat="45.90207" lon="2.95658">
        <ele>804.25</ele>
        <time>2013-06-10T09:54:21Z</time>
      </trkpt>
      <trkpt lat="45.90193" lon="2.95642">
        <ele>804.39</ele>
        <time>2013-06-10T09:54:26Z</time>
      </trkpt>
      <trkpt lat="45.90178" lon="2.95625">
        <ele>804.41</ele>
        <time>2013-06-10T09:54:31Z</time>
      </trkpt>
      <trkpt lat="45.90163" lon="2.95607">
        <ele>804.8</ele>
        <time>2013-06-10T09:54:36Z</time>
      </trkpt>
      <trkpt lat="45.9015" lon="2.95586">
        <ele>805.42</ele>
        <time>2013-06-10T09:54:41Z</time>
      </trkpt>
      <trkpt lat="45.90136" lon="2.95565">
        <ele>805.87</ele>
        <time>2013-06-10T09:54:47Z</time>
      </trkpt>
      <trkpt lat="45.90124" lon="2.95543">
        <ele>805.89</ele>
        <time>2013-06-10T09:54:53Z</time>
      </trkpt>
      <trkpt lat="45.90112" lon="2.95521">
        <ele>806.51</ele>
        <time>2013-06-10T09:54:59Z</time>
      </trkpt>
      <trkpt lat="45.90099" lon="2.95501">
        <ele>806.86</ele>
        <time>2013-06-10T09:55:04Z</time>
      </trkpt>
      <trkpt lat="45.90085" lon="2.95479">
        <ele>807.39</ele>
        <time>2013-06-10T09:55:09Z</time>
      </trkpt>
      <trkpt lat="45.90069" lon="2.9546">
        <ele>807.85</ele>
        <time>2013-06-10T09:55:14Z</time>
      </trkpt>
      <trkpt lat="45.90052" lon="2.95442">
        <ele>808.5</ele>
        <time>2013-06-10T09:55:19Z</time>
      </trkpt>
      <trkpt lat="45.90037" lon="2.95427">
        <ele>808.84</ele>
        <time>2013-06-10T09:55:23Z</time>
      </trkpt>
      <trkpt lat="45.90021" lon="2.95409">
        <ele>809.03</ele>
        <time>2013-06-10T09:55:28Z</time>
      </trkpt>
      <trkpt lat="45.90005" lon="2.95394">
        <ele>808.99</ele>
        <time>2013-06-10T09:55:33Z</time>
      </trkpt>
      <trkpt lat="45.89992" lon="2.95371">
        <ele>809.34</ele>
        <time>2013-06-10T09:55:39Z</time>
      </trkpt>
      <trkpt lat="45.89981" lon="2.9535">
        <ele>809.49</ele>
        <time>2013-06-10T09:55:44Z</time>
      </trkpt>
      <trkpt lat="45.89971" lon="2.95324">
        <ele>809.57</ele>
        <time>2013-06-10T09:55:50Z</time>
      </trkpt>
      <trkpt lat="45.89963" lon="2.95299">
        <ele>809.87</ele>
        <time>2013-06-10T09:55:55Z</time>
      </trkpt>
      <trkpt lat="45.89948" lon="2.95282">
        <ele>810.52</ele>
        <time>2013-06-10T09:56:01Z</time>
      </trkpt>
      <trkpt lat="45.89927" lon="2.95288">
        <ele>811.34</ele>
        <time>2013-06-10T09:56:09Z</time>
      </trkpt>
      <trkpt lat="45.89909" lon="2.95303">
        <ele>811.86</ele>
        <time>2013-06-10T09:56:16Z</time>
      </trkpt>
      <trkpt lat="45.89893" lon="2.95316">
        <ele>812.5</ele>
        <time>2013-06-10T09:56:22Z</time>
      </trkpt>
      <trkpt lat="45.89876" lon="2.95335">
        <ele>813.07</ele>
        <time>2013-06-10T09:56:28Z</time>
      </trkpt>
      <trkpt lat="45.89861" lon="2.95353">
        <ele>813.52</ele>
        <time>2013-06-10T09:56:34Z</time>
      </trkpt>
      <trkpt lat="45.89848" lon="2.95373">
        <ele>814.01</ele>
        <time>2013-06-10T09:56:39Z</time>
      </trkpt>
      <trkpt lat="45.89837" lon="2.95394">
        <ele>815.53</ele>
        <time>2013-06-10T09:56:44Z</time>
      </trkpt>
      <trkpt lat="45.89826" lon="2.95418">
        <ele>817.05</ele>
        <time>2013-06-10T09:56:50Z</time>
      </trkpt>
      <trkpt lat="45.89812" lon="2.95439">
        <ele>817.74</ele>
        <time>2013-06-10T09:56:56Z</time>
      </trkpt>
      <trkpt lat="45.89798" lon="2.95462">
        <ele>819.85</ele>
        <time>2013-06-10T09:57:02Z</time>
      </trkpt>
      <trkpt lat="45.89783" lon="2.9548">
        <ele>818.99</ele>
        <time>2013-06-10T09:57:07Z</time>
      </trkpt>
      <trkpt lat="45.89765" lon="2.95494">
        <ele>818.06</ele>
        <time>2013-06-10T09:57:13Z</time>
      </trkpt>
      <trkpt lat="45.89748" lon="2.95507">
        <ele>817.93</ele>
        <time>2013-06-10T09:57:18Z</time>
      </trkpt>
      <trkpt lat="45.8973" lon="2.9552">
        <ele>818.11</ele>
        <time>2013-06-10T09:57:23Z</time>
      </trkpt>
      <trkpt lat="45.89714" lon="2.95533">
        <ele>818</ele>
        <time>2013-06-10T09:57:28Z</time>
      </trkpt>
      <trkpt lat="45.89695" lon="2.95546">
        <ele>817.77</ele>
        <time>2013-06-10T09:57:35Z</time>
      </trkpt>
      <trkpt lat="45.89676" lon="2.95548">
        <ele>815.83</ele>
        <time>2013-06-10T09:59:15Z</time>
      </trkpt>
      <trkpt lat="45.89663" lon="2.95531">
        <ele>822.29</ele>
        <time>2013-06-10T09:59:28Z</time>
      </trkpt>
      <trkpt lat="45.89652" lon="2.95506">
        <ele>828.49</ele>
        <time>2013-06-10T09:59:38Z</time>
      </trkpt>
      <trkpt lat="45.8964" lon="2.95485">
        <ele>839.42</ele>
        <time>2013-06-10T09:59:48Z</time>
      </trkpt>
      <trkpt lat="45.8963" lon="2.95461">
        <ele>847.97</ele>
        <time>2013-06-10T09:59:58Z</time>
      </trkpt>
      <trkpt lat="45.89613" lon="2.95448">
        <ele>846.04</ele>
        <time>2013-06-10T10:00:10Z</time>
      </trkpt>
      <trkpt lat="45.89595" lon="2.95452">
        <ele>846.84</ele>
        <time>2013-06-10T10:00:21Z</time>
      </trkpt>
      <trkpt lat="45.89577" lon="2.95454">
        <ele>854.96</ele>
        <time>2013-06-10T10:01:05Z</time>
      </trkpt>
      <trkpt lat="45.8958" lon="2.95425">
        <ele>854.35</ele>
        <time>2013-06-10T10:01:35Z</time>
      </trkpt>
      <trkpt lat="45.89591" lon="2.95394">
        <ele>853.85</ele>
        <time>2013-06-10T10:02:23Z</time>
      </trkpt>
      <trkpt lat="45.89602" lon="2.95369">
        <ele>852.9</ele>
        <time>2013-06-10T10:02:27Z</time>
      </trkpt>
      <trkpt lat="45.89605" lon="2.95344">
        <ele>850.41</ele>
        <time>2013-06-10T10:02:34Z</time>
      </trkpt>
      <trkpt lat="45.89605" lon="2.95316">
        <ele>845.79</ele>
        <time>2013-06-10T10:02:44Z</time>
      </trkpt>
      <trkpt lat="45.89599" lon="2.95288">
        <ele>851.04</ele>
        <time>2013-06-10T10:02:58Z</time>
      </trkpt>
      <trkpt lat="45.89588" lon="2.95267">
        <ele>854.45</ele>
        <time>2013-06-10T10:03:10Z</time>
      </trkpt>
      <trkpt lat="45.89583" lon="2.95242">
        <ele>855.08</ele>
        <time>2013-06-10T10:03:17Z</time>
      </trkpt>
      <trkpt lat="45.89581" lon="2.95214">
        <ele>853.84</ele>
        <time>2013-06-10T10:03:25Z</time>
      </trkpt>
      <trkpt lat="45.89587" lon="2.95186">
        <ele>852.59</ele>
        <time>2013-06-10T10:03:31Z</time>
      </trkpt>
      <trkpt lat="45.89594" lon="2.9516">
        <ele>849.68</ele>
        <time>2013-06-10T10:03:36Z</time>
      </trkpt>
      <trkpt lat="45.896" lon="2.95136">
        <ele>846.83</ele>
        <time>2013-06-10T10:03:41Z</time>
      </trkpt>
      <trkpt lat="45.89607" lon="2.95111">
        <ele>845.2</ele>
        <time>2013-06-10T10:03:47Z</time>
      </trkpt>
      <trkpt lat="45.89613" lon="2.95087">
        <ele>845.02</ele>
        <time>2013-06-10T10:03:53Z</time>
      </trkpt>
      <trkpt lat="45.8962" lon="2.95061">
        <ele>844.51</ele>
        <time>2013-06-10T10:04:02Z</time>
      </trkpt>
      <trkpt lat="45.89627" lon="2.95034">
        <ele>843.4</ele>
        <time>2013-06-10T10:04:11Z</time>
      </trkpt>
      <trkpt lat="45.89633" lon="2.95009">
        <ele>842.38</ele>
        <time>2013-06-10T10:04:17Z</time>
      </trkpt>
      <trkpt lat="45.89642" lon="2.94984">
        <ele>840.53</ele>
        <time>2013-06-10T10:04:22Z</time>
      </trkpt>
      <trkpt lat="45.89657" lon="2.9496">
        <ele>838.67</ele>
        <time>2013-06-10T10:04:26Z</time>
      </trkpt>
      <trkpt lat="45.89668" lon="2.9494">
        <ele>837.02</ele>
        <time>2013-06-10T10:04:30Z</time>
      </trkpt>
      <trkpt lat="45.89677" lon="2.94915">
        <ele>835.12</ele>
        <time>2013-06-10T10:04:36Z</time>
      </trkpt>
      <trkpt lat="45.8966" lon="2.94904">
        <ele>834.68</ele>
        <time>2013-06-10T10:04:43Z</time>
      </trkpt>
      <trkpt lat="45.89641" lon="2.94902">
        <ele>834.07</ele>
        <time>2013-06-10T10:04:48Z</time>
      </trkpt>
      <trkpt lat="45.89623" lon="2.94903">
        <ele>833.26</ele>
        <time>2013-06-10T10:04:53Z</time>
      </trkpt>
      <trkpt lat="45.89604" lon="2.94902">
        <ele>832.53</ele>
        <time>2013-06-10T10:04:58Z</time>
      </trkpt>
      <trkpt lat="45.89581" lon="2.94901">
        <ele>831.65</ele>
        <time>2013-06-10T10:05:03Z</time>
      </trkpt>
      <trkpt lat="45.89563" lon="2.949">
        <ele>830.87</ele>
        <time>2013-06-10T10:05:06Z</time>
      </trkpt>
      <trkpt lat="45.89542" lon="2.949">
        <ele>829.9</ele>
        <time>2013-06-10T10:05:09Z</time>
      </trkpt>
      <trkpt lat="45.89522" lon="2.94902">
        <ele>828.88</ele>
        <time>2013-06-10T10:05:12Z</time>
      </trkpt>
      <trkpt lat="45.89501" lon="2.94903">
        <ele>828.03</ele>
        <time>2013-06-10T10:05:15Z</time>
      </trkpt>
      <trkpt lat="45.89481" lon="2.94898">
        <ele>827.31</ele>
        <time>2013-06-10T10:05:18Z</time>
      </trkpt>
      <trkpt lat="45.89461" lon="2.94895">
        <ele>826.62</ele>
        <time>2013-06-10T10:05:21Z</time>
      </trkpt>
      <trkpt lat="45.89441" lon="2.94892">
        <ele>826.32</ele>
        <time>2013-06-10T10:05:24Z</time>
      </trkpt>
      <trkpt lat="45.89422" lon="2.9489">
        <ele>825.98</ele>
        <time>2013-06-10T10:05:27Z</time>
      </trkpt>
      <trkpt lat="45.89403" lon="2.94888">
        <ele>825.9</ele>
        <time>2013-06-10T10:05:30Z</time>
      </trkpt>
      <trkpt lat="45.89385" lon="2.94887">
        <ele>825.93</ele>
        <time>2013-06-10T10:05:33Z</time>
      </trkpt>
      <trkpt lat="45.8936" lon="2.94885">
        <ele>825.94</ele>
        <time>2013-06-10T10:05:37Z</time>
      </trkpt>
      <trkpt lat="45.89337" lon="2.94881">
        <ele>825.77</ele>
        <time>2013-06-10T10:05:41Z</time>
      </trkpt>
      <trkpt lat="45.89318" lon="2.9488">
        <ele>826.26</ele>
        <time>2013-06-10T10:05:45Z</time>
      </trkpt>
      <trkpt lat="45.89299" lon="2.94882">
        <ele>827.08</ele>
        <time>2013-06-10T10:05:50Z</time>
      </trkpt>
      <trkpt lat="45.89281" lon="2.94886">
        <ele>828.89</ele>
        <time>2013-06-10T10:05:57Z</time>
      </trkpt>
      <trkpt lat="45.89265" lon="2.94873">
        <ele>830.22</ele>
        <time>2013-06-10T10:06:10Z</time>
      </trkpt>
      <trkpt lat="45.89261" lon="2.94848">
        <ele>830.78</ele>
        <time>2013-06-10T10:06:19Z</time>
      </trkpt>
      <trkpt lat="45.89264" lon="2.94817">
        <ele>829.55</ele>
        <time>2013-06-10T10:06:24Z</time>
      </trkpt>
      <trkpt lat="45.89262" lon="2.94785">
        <ele>827.98</ele>
        <time>2013-06-10T10:06:28Z</time>
      </trkpt>
      <trkpt lat="45.89251" lon="2.94762">
        <ele>827.26</ele>
        <time>2013-06-10T10:06:34Z</time>
      </trkpt>
      <trkpt lat="45.89233" lon="2.94746">
        <ele>827.28</ele>
        <time>2013-06-10T10:06:41Z</time>
      </trkpt>
      <trkpt lat="45.89222" lon="2.94724">
        <ele>827.05</ele>
        <time>2013-06-10T10:06:46Z</time>
      </trkpt>
      <trkpt lat="45.89208" lon="2.94703">
        <ele>826.92</ele>
        <time>2013-06-10T10:06:50Z</time>
      </trkpt>
      <trkpt lat="45.89192" lon="2.94689">
        <ele>826.67</ele>
        <time>2013-06-10T10:06:54Z</time>
      </trkpt>
      <trkpt lat="45.89176" lon="2.94679">
        <ele>826.72</ele>
        <time>2013-06-10T10:06:58Z</time>
      </trkpt>
      <trkpt lat="45.89158" lon="2.94672">
        <ele>826.73</ele>
        <time>2013-06-10T10:07:02Z</time>
      </trkpt>
      <trkpt lat="45.8914" lon="2.94669">
        <ele>826.83</ele>
        <time>2013-06-10T10:07:07Z</time>
      </trkpt>
      <trkpt lat="45.8912" lon="2.94671">
        <ele>826.36</ele>
        <time>2013-06-10T10:07:12Z</time>
      </trkpt>
      <trkpt lat="45.89103" lon="2.94667">
        <ele>826.15</ele>
        <time>2013-06-10T10:07:48Z</time>
      </trkpt>
      <trkpt lat="45.89114" lon="2.94646">
        <ele>826.05</ele>
        <time>2013-06-10T10:07:55Z</time>
      </trkpt>
      <trkpt lat="45.89121" lon="2.9462">
        <ele>826.28</ele>
        <time>2013-06-10T10:08:00Z</time>
      </trkpt>
      <trkpt lat="45.89122" lon="2.94592">
        <ele>826.85</ele>
        <time>2013-06-10T10:08:05Z</time>
      </trkpt>
      <trkpt lat="45.8911" lon="2.94573">
        <ele>827.2</ele>
        <time>2013-06-10T10:08:10Z</time>
      </trkpt>
      <trkpt lat="45.89098" lon="2.94552">
        <ele>827.98</ele>
        <time>2013-06-10T10:08:15Z</time>
      </trkpt>
      <trkpt lat="45.89088" lon="2.94526">
        <ele>828.47</ele>
        <time>2013-06-10T10:08:20Z</time>
      </trkpt>
      <trkpt lat="45.89081" lon="2.94499">
        <ele>828.93</ele>
        <time>2013-06-10T10:08:26Z</time>
      </trkpt>
      <trkpt lat="45.89074" lon="2.94469">
        <ele>829.4</ele>
        <time>2013-06-10T10:08:32Z</time>
      </trkpt>
      <trkpt lat="45.89068" lon="2.94441">
        <ele>829.59</ele>
        <time>2013-06-10T10:08:37Z</time>
      </trkpt>
      <trkpt lat="45.89062" lon="2.94414">
        <ele>829.8</ele>
        <time>2013-06-10T10:08:42Z</time>
      </trkpt>
      <trkpt lat="45.89053" lon="2.94386">
        <ele>829.91</ele>
        <time>2013-06-10T10:08:47Z</time>
      </trkpt>
      <trkpt lat="45.89044" lon="2.94362">
        <ele>830.52</ele>
        <time>2013-06-10T10:08:51Z</time>
      </trkpt>
      <trkpt lat="45.89036" lon="2.94334">
        <ele>831.24</ele>
        <time>2013-06-10T10:08:56Z</time>
      </trkpt>
      <trkpt lat="45.89031" lon="2.94308">
        <ele>831.36</ele>
        <time>2013-06-10T10:09:00Z</time>
      </trkpt>
      <trkpt lat="45.89025" lon="2.94282">
        <ele>831.35</ele>
        <time>2013-06-10T10:09:04Z</time>
      </trkpt>
      <trkpt lat="45.8902" lon="2.94257">
        <ele>831.52</ele>
        <time>2013-06-10T10:09:08Z</time>
      </trkpt>
      <trkpt lat="45.89012" lon="2.94227">
        <ele>831.48</ele>
        <time>2013-06-10T10:09:13Z</time>
      </trkpt>
      <trkpt lat="45.89002" lon="2.94204">
        <ele>831.52</ele>
        <time>2013-06-10T10:09:17Z</time>
      </trkpt>
      <trkpt lat="45.8899" lon="2.94183">
        <ele>832.04</ele>
        <time>2013-06-10T10:09:21Z</time>
      </trkpt>
      <trkpt lat="45.88977" lon="2.9416">
        <ele>832.45</ele>
        <time>2013-06-10T10:09:26Z</time>
      </trkpt>
      <trkpt lat="45.88964" lon="2.94136">
        <ele>832.36</ele>
        <time>2013-06-10T10:09:31Z</time>
      </trkpt>
      <trkpt lat="45.8895" lon="2.94115">
        <ele>832.52</ele>
        <time>2013-06-10T10:09:36Z</time>
      </trkpt>
      <trkpt lat="45.88934" lon="2.94098">
        <ele>832.26</ele>
        <time>2013-06-10T10:09:41Z</time>
      </trkpt>
      <trkpt lat="45.88917" lon="2.9408">
        <ele>831.98</ele>
        <time>2013-06-10T10:09:46Z</time>
      </trkpt>
      <trkpt lat="45.88901" lon="2.94065">
        <ele>832.81</ele>
        <time>2013-06-10T10:09:51Z</time>
      </trkpt>
      <trkpt lat="45.88883" lon="2.94055">
        <ele>833.69</ele>
        <time>2013-06-10T10:09:56Z</time>
      </trkpt>
      <trkpt lat="45.88862" lon="2.94057">
        <ele>834.5</ele>
        <time>2013-06-10T10:10:02Z</time>
      </trkpt>
      <trkpt lat="45.88844" lon="2.94057">
        <ele>834.99</ele>
        <time>2013-06-10T10:10:07Z</time>
      </trkpt>
      <trkpt lat="45.88824" lon="2.94059">
        <ele>836.35</ele>
        <time>2013-06-10T10:10:13Z</time>
      </trkpt>
      <trkpt lat="45.88804" lon="2.9406">
        <ele>837.14</ele>
        <time>2013-06-10T10:10:20Z</time>
      </trkpt>
      <trkpt lat="45.88783" lon="2.94059">
        <ele>837.68</ele>
        <time>2013-06-10T10:10:27Z</time>
      </trkpt>
      <trkpt lat="45.88765" lon="2.94058">
        <ele>838.05</ele>
        <time>2013-06-10T10:10:33Z</time>
      </trkpt>
      <trkpt lat="45.88745" lon="2.94057">
        <ele>838.54</ele>
        <time>2013-06-10T10:10:40Z</time>
      </trkpt>
      <trkpt lat="45.88726" lon="2.94058">
        <ele>839.32</ele>
        <time>2013-06-10T10:10:47Z</time>
      </trkpt>
      <trkpt lat="45.88706" lon="2.94059">
        <ele>840.39</ele>
        <time>2013-06-10T10:10:54Z</time>
      </trkpt>
      <trkpt lat="45.88686" lon="2.94062">
        <ele>841.22</ele>
        <time>2013-06-10T10:11:05Z</time>
      </trkpt>
      <trkpt lat="45.88668" lon="2.94064">
        <ele>842.12</ele>
        <time>2013-06-10T10:11:13Z</time>
      </trkpt>
      <trkpt lat="45.88649" lon="2.94067">
        <ele>843.02</ele>
        <time>2013-06-10T10:11:21Z</time>
      </trkpt>
      <trkpt lat="45.8863" lon="2.94068">
        <ele>843.48</ele>
        <time>2013-06-10T10:11:31Z</time>
      </trkpt>
      <trkpt lat="45.88611" lon="2.94063">
        <ele>843.29</ele>
        <time>2013-06-10T10:11:38Z</time>
      </trkpt>
      <trkpt lat="45.88595" lon="2.94048">
        <ele>841.24</ele>
        <time>2013-06-10T10:11:45Z</time>
      </trkpt>
      <trkpt lat="45.88585" lon="2.94022">
        <ele>839.77</ele>
        <time>2013-06-10T10:11:49Z</time>
      </trkpt>
      <trkpt lat="45.88568" lon="2.9401">
        <ele>838.9</ele>
        <time>2013-06-10T10:11:52Z</time>
      </trkpt>
      <trkpt lat="45.88549" lon="2.94002">
        <ele>838.08</ele>
        <time>2013-06-10T10:11:56Z</time>
      </trkpt>
      <trkpt lat="45.88527" lon="2.93997">
        <ele>838.33</ele>
        <time>2013-06-10T10:12:01Z</time>
      </trkpt>
      <trkpt lat="45.88509" lon="2.94005">
        <ele>839.15</ele>
        <time>2013-06-10T10:12:09Z</time>
      </trkpt>
      <trkpt lat="45.88507" lon="2.94036">
        <ele>840.12</ele>
        <time>2013-06-10T10:12:15Z</time>
      </trkpt>
      <trkpt lat="45.88508" lon="2.94069">
        <ele>841.22</ele>
        <time>2013-06-10T10:12:20Z</time>
      </trkpt>
      <trkpt lat="45.88514" lon="2.94098">
        <ele>840.95</ele>
        <time>2013-06-10T10:12:25Z</time>
      </trkpt>
      <trkpt lat="45.88521" lon="2.94124">
        <ele>840.47</ele>
        <time>2013-06-10T10:12:29Z</time>
      </trkpt>
      <trkpt lat="45.88529" lon="2.94149">
        <ele>838.84</ele>
        <time>2013-06-10T10:12:32Z</time>
      </trkpt>
      <trkpt lat="45.88537" lon="2.94177">
        <ele>837.04</ele>
        <time>2013-06-10T10:12:35Z</time>
      </trkpt>
      <trkpt lat="45.88542" lon="2.94208">
        <ele>835.56</ele>
        <time>2013-06-10T10:12:38Z</time>
      </trkpt>
      <trkpt lat="45.88542" lon="2.94238">
        <ele>833.33</ele>
        <time>2013-06-10T10:12:41Z</time>
      </trkpt>
      <trkpt lat="45.88535" lon="2.94262">
        <ele>831.71</ele>
        <time>2013-06-10T10:12:44Z</time>
      </trkpt>
      <trkpt lat="45.88523" lon="2.94282">
        <ele>830.37</ele>
        <time>2013-06-10T10:12:47Z</time>
      </trkpt>
      <trkpt lat="45.88507" lon="2.94301">
        <ele>829.51</ele>
        <time>2013-06-10T10:12:50Z</time>
      </trkpt>
      <trkpt lat="45.88485" lon="2.94317">
        <ele>828.62</ele>
        <time>2013-06-10T10:12:53Z</time>
      </trkpt>
      <trkpt lat="45.88466" lon="2.94328">
        <ele>827.95</ele>
        <time>2013-06-10T10:12:56Z</time>
      </trkpt>
      <trkpt lat="45.88448" lon="2.94341">
        <ele>827.7</ele>
        <time>2013-06-10T10:13:00Z</time>
      </trkpt>
      <trkpt lat="45.88435" lon="2.94364">
        <ele>827.95</ele>
        <time>2013-06-10T10:13:05Z</time>
      </trkpt>
      <trkpt lat="45.88423" lon="2.94388">
        <ele>828.07</ele>
        <time>2013-06-10T10:13:11Z</time>
      </trkpt>
      <trkpt lat="45.88413" lon="2.94412">
        <ele>830.19</ele>
        <time>2013-06-10T10:13:18Z</time>
      </trkpt>
      <trkpt lat="45.88398" lon="2.94432">
        <ele>831.53</ele>
        <time>2013-06-10T10:13:23Z</time>
      </trkpt>
      <trkpt lat="45.88383" lon="2.94457">
        <ele>832.45</ele>
        <time>2013-06-10T10:13:27Z</time>
      </trkpt>
      <trkpt lat="45.88369" lon="2.94479">
        <ele>831.57</ele>
        <time>2013-06-10T10:13:31Z</time>
      </trkpt>
      <trkpt lat="45.88351" lon="2.94494">
        <ele>831.22</ele>
        <time>2013-06-10T10:13:35Z</time>
      </trkpt>
      <trkpt lat="45.88331" lon="2.9451">
        <ele>831.27</ele>
        <time>2013-06-10T10:13:38Z</time>
      </trkpt>
      <trkpt lat="45.88316" lon="2.94523">
        <ele>829.6</ele>
        <time>2013-06-10T10:13:42Z</time>
      </trkpt>
      <trkpt lat="45.88296" lon="2.94512">
        <ele>826.6</ele>
        <time>2013-06-10T10:13:48Z</time>
      </trkpt>
      <trkpt lat="45.88276" lon="2.94498">
        <ele>826.46</ele>
        <time>2013-06-10T10:13:53Z</time>
      </trkpt>
      <trkpt lat="45.88257" lon="2.94499">
        <ele>826.93</ele>
        <time>2013-06-10T10:13:57Z</time>
      </trkpt>
      <trkpt lat="45.88235" lon="2.94501">
        <ele>826.56</ele>
        <time>2013-06-10T10:14:02Z</time>
      </trkpt>
      <trkpt lat="45.88213" lon="2.945">
        <ele>825.61</ele>
        <time>2013-06-10T10:14:07Z</time>
      </trkpt>
      <trkpt lat="45.88195" lon="2.94494">
        <ele>825.93</ele>
        <time>2013-06-10T10:14:12Z</time>
      </trkpt>
      <trkpt lat="45.88174" lon="2.94495">
        <ele>826</ele>
        <time>2013-06-10T10:14:17Z</time>
      </trkpt>
      <trkpt lat="45.88154" lon="2.94494">
        <ele>826.8</ele>
        <time>2013-06-10T10:14:24Z</time>
      </trkpt>
      <trkpt lat="45.88136" lon="2.9449">
        <ele>828.11</ele>
        <time>2013-06-10T10:14:29Z</time>
      </trkpt>
      <trkpt lat="45.88116" lon="2.94479">
        <ele>828.01</ele>
        <time>2013-06-10T10:14:35Z</time>
      </trkpt>
      <trkpt lat="45.88094" lon="2.94478">
        <ele>825.66</ele>
        <time>2013-06-10T10:14:41Z</time>
      </trkpt>
      <trkpt lat="45.88076" lon="2.94475">
        <ele>826.3</ele>
        <time>2013-06-10T10:14:59Z</time>
      </trkpt>
      <trkpt lat="45.88063" lon="2.94453">
        <ele>824.72</ele>
        <time>2013-06-10T10:20:22Z</time>
      </trkpt>
      <trkpt lat="45.87342" lon="2.94662">
        <ele>819</ele>
        <time>2013-06-10T10:30:23Z</time>
      </trkpt>
      <trkpt lat="45.87331" lon="2.94682">
        <ele>885.38</ele>
        <time>2013-06-10T10:39:09Z</time>
      </trkpt>
      <trkpt lat="45.87327" lon="2.94709">
        <ele>887.32</ele>
        <time>2013-06-10T10:39:19Z</time>
      </trkpt>
      <trkpt lat="45.87324" lon="2.94735">
        <ele>889.2</ele>
        <time>2013-06-10T10:39:27Z</time>
      </trkpt>
      <trkpt lat="45.87322" lon="2.94763">
        <ele>889</ele>
        <time>2013-06-10T10:39:37Z</time>
      </trkpt>
      <trkpt lat="45.87316" lon="2.94789">
        <ele>889.2</ele>
        <time>2013-06-10T10:39:44Z</time>
      </trkpt>
      <trkpt lat="45.87316" lon="2.94815">
        <ele>885.38</ele>
        <time>2013-06-10T10:40:04Z</time>
      </trkpt>
      <trkpt lat="45.87306" lon="2.94838">
        <ele>882.18</ele>
        <time>2013-06-10T10:40:22Z</time>
      </trkpt>
      <trkpt lat="45.87297" lon="2.94863">
        <ele>881.85</ele>
        <time>2013-06-10T10:40:35Z</time>
      </trkpt>
      <trkpt lat="45.87287" lon="2.94885">
        <ele>882.12</ele>
        <time>2013-06-10T10:40:42Z</time>
      </trkpt>
      <trkpt lat="45.87273" lon="2.94904">
        <ele>883.15</ele>
        <time>2013-06-10T10:40:50Z</time>
      </trkpt>
      <trkpt lat="45.87263" lon="2.94927">
        <ele>887.59</ele>
        <time>2013-06-10T10:41:02Z</time>
      </trkpt>
      <trkpt lat="45.87251" lon="2.94947">
        <ele>890.2</ele>
        <time>2013-06-10T10:41:09Z</time>
      </trkpt>
      <trkpt lat="45.8724" lon="2.94969">
        <ele>888.86</ele>
        <time>2013-06-10T10:41:15Z</time>
      </trkpt>
      <trkpt lat="45.87236" lon="2.94995">
        <ele>880.33</ele>
        <time>2013-06-10T10:41:48Z</time>
      </trkpt>
      <trkpt lat="45.87241" lon="2.95022">
        <ele>880.84</ele>
        <time>2013-06-10T10:41:56Z</time>
      </trkpt>
      <trkpt lat="45.87253" lon="2.9504">
        <ele>881.35</ele>
        <time>2013-06-10T10:42:01Z</time>
      </trkpt>
      <trkpt lat="45.87263" lon="2.95062">
        <ele>880.79</ele>
        <time>2013-06-10T10:42:08Z</time>
      </trkpt>
      <trkpt lat="45.87279" lon="2.95081">
        <ele>882.69</ele>
        <time>2013-06-10T10:42:16Z</time>
      </trkpt>
      <trkpt lat="45.87293" lon="2.95099">
        <ele>884.46</ele>
        <time>2013-06-10T10:42:23Z</time>
      </trkpt>
      <trkpt lat="45.87301" lon="2.95123">
        <ele>887.35</ele>
        <time>2013-06-10T10:42:33Z</time>
      </trkpt>
      <trkpt lat="45.87302" lon="2.9515">
        <ele>886.22</ele>
        <time>2013-06-10T10:42:54Z</time>
      </trkpt>
      <trkpt lat="45.87314" lon="2.9517">
        <ele>881.44</ele>
        <time>2013-06-10T10:43:35Z</time>
      </trkpt>
      <trkpt lat="45.87313" lon="2.95198">
        <ele>880.3</ele>
        <time>2013-06-10T10:43:44Z</time>
      </trkpt>
      <trkpt lat="45.87311" lon="2.95224">
        <ele>879.3</ele>
        <time>2013-06-10T10:43:52Z</time>
      </trkpt>
      <trkpt lat="45.87304" lon="2.95248">
        <ele>878.59</ele>
        <time>2013-06-10T10:44:01Z</time>
      </trkpt>
      <trkpt lat="45.87305" lon="2.95275">
        <ele>878.69</ele>
        <time>2013-06-10T10:44:11Z</time>
      </trkpt>
      <trkpt lat="45.87308" lon="2.95303">
        <ele>888.82</ele>
        <time>2013-06-10T10:44:27Z</time>
      </trkpt>
      <trkpt lat="45.87299" lon="2.95326">
        <ele>893.21</ele>
        <time>2013-06-10T10:44:39Z</time>
      </trkpt>
      <trkpt lat="45.87309" lon="2.9535">
        <ele>896.28</ele>
        <time>2013-06-10T10:44:46Z</time>
      </trkpt>
      <trkpt lat="45.87319" lon="2.95374">
        <ele>898.94</ele>
        <time>2013-06-10T10:44:56Z</time>
      </trkpt>
      <trkpt lat="45.87324" lon="2.95404">
        <ele>901.33</ele>
        <time>2013-06-10T10:45:09Z</time>
      </trkpt>
      <trkpt lat="45.87333" lon="2.9543">
        <ele>898.02</ele>
        <time>2013-06-10T10:45:13Z</time>
      </trkpt>
      <trkpt lat="45.87336" lon="2.95457">
        <ele>893</ele>
        <time>2013-06-10T10:45:17Z</time>
      </trkpt>
      <trkpt lat="45.87332" lon="2.95483">
        <ele>890.87</ele>
        <time>2013-06-10T10:45:22Z</time>
      </trkpt>
      <trkpt lat="45.87324" lon="2.95508">
        <ele>887.73</ele>
        <time>2013-06-10T10:46:08Z</time>
      </trkpt>
      <trkpt lat="45.87318" lon="2.95535">
        <ele>883.51</ele>
        <time>2013-06-10T10:46:19Z</time>
      </trkpt>
      <trkpt lat="45.87309" lon="2.95559">
        <ele>881.5</ele>
        <time>2013-06-10T10:46:28Z</time>
      </trkpt>
      <trkpt lat="45.87301" lon="2.95583">
        <ele>881.43</ele>
        <time>2013-06-10T10:46:37Z</time>
      </trkpt>
      <trkpt lat="45.87288" lon="2.95604">
        <ele>886.58</ele>
        <time>2013-06-10T10:46:52Z</time>
      </trkpt>
      <trkpt lat="45.87279" lon="2.95629">
        <ele>885.66</ele>
        <time>2013-06-10T10:47:23Z</time>
      </trkpt>
      <trkpt lat="45.87269" lon="2.95653">
        <ele>884.01</ele>
        <time>2013-06-10T10:47:32Z</time>
      </trkpt>
      <trkpt lat="45.87253" lon="2.95669">
        <ele>893.3</ele>
        <time>2013-06-10T10:47:45Z</time>
      </trkpt>
      <trkpt lat="45.87236" lon="2.95684">
        <ele>893.22</ele>
        <time>2013-06-10T10:47:55Z</time>
      </trkpt>
      <trkpt lat="45.87218" lon="2.9569">
        <ele>891.35</ele>
        <time>2013-06-10T10:48:04Z</time>
      </trkpt>
      <trkpt lat="45.87205" lon="2.95713">
        <ele>892.14</ele>
        <time>2013-06-10T10:48:12Z</time>
      </trkpt>
      <trkpt lat="45.87191" lon="2.9573">
        <ele>890.72</ele>
        <time>2013-06-10T10:48:16Z</time>
      </trkpt>
      <trkpt lat="45.87177" lon="2.95749">
        <ele>883.45</ele>
        <time>2013-06-10T10:48:27Z</time>
      </trkpt>
      <trkpt lat="45.87164" lon="2.95769">
        <ele>881.66</ele>
        <time>2013-06-10T10:48:34Z</time>
      </trkpt>
      <trkpt lat="45.87147" lon="2.95783">
        <ele>882.11</ele>
        <time>2013-06-10T10:48:40Z</time>
      </trkpt>
      <trkpt lat="45.87133" lon="2.95801">
        <ele>884.01</ele>
        <time>2013-06-10T10:48:47Z</time>
      </trkpt>
      <trkpt lat="45.87117" lon="2.95816">
        <ele>884.82</ele>
        <time>2013-06-10T10:48:55Z</time>
      </trkpt>
      <trkpt lat="45.87102" lon="2.95835">
        <ele>884.94</ele>
        <time>2013-06-10T10:49:03Z</time>
      </trkpt>
      <trkpt lat="45.87088" lon="2.95854">
        <ele>886.05</ele>
        <time>2013-06-10T10:49:09Z</time>
      </trkpt>
      <trkpt lat="45.87072" lon="2.95865">
        <ele>885.92</ele>
        <time>2013-06-10T10:49:15Z</time>
      </trkpt>
      <trkpt lat="45.87055" lon="2.95878">
        <ele>880.83</ele>
        <time>2013-06-10T10:49:22Z</time>
      </trkpt>
      <trkpt lat="45.8704" lon="2.95894">
        <ele>881.37</ele>
        <time>2013-06-10T10:49:33Z</time>
      </trkpt>
      <trkpt lat="45.87024" lon="2.95911">
        <ele>878.25</ele>
        <time>2013-06-10T10:49:42Z</time>
      </trkpt>
      <trkpt lat="45.87008" lon="2.95926">
        <ele>877.58</ele>
        <time>2013-06-10T10:49:50Z</time>
      </trkpt>
      <trkpt lat="45.86994" lon="2.95943">
        <ele>876.82</ele>
        <time>2013-06-10T10:49:54Z</time>
      </trkpt>
      <trkpt lat="45.86979" lon="2.95961">
        <ele>875.97</ele>
        <time>2013-06-10T10:49:58Z</time>
      </trkpt>
      <trkpt lat="45.86961" lon="2.95974">
        <ele>874.3</ele>
        <time>2013-06-10T10:50:04Z</time>
      </trkpt>
      <trkpt lat="45.86943" lon="2.95976">
        <ele>868.99</ele>
        <time>2013-06-10T10:50:10Z</time>
      </trkpt>
      <trkpt lat="45.86926" lon="2.95993">
        <ele>862.82</ele>
        <time>2013-06-10T10:50:16Z</time>
      </trkpt>
      <trkpt lat="45.86914" lon="2.96013">
        <ele>859.86</ele>
        <time>2013-06-10T10:50:21Z</time>
      </trkpt>
      <trkpt lat="45.86901" lon="2.96034">
        <ele>853.89</ele>
        <time>2013-06-10T10:50:28Z</time>
      </trkpt>
      <trkpt lat="45.86912" lon="2.96058">
        <ele>848.2</ele>
        <time>2013-06-10T10:51:11Z</time>
      </trkpt>
      <trkpt lat="45.86928" lon="2.96069">
        <ele>846.96</ele>
        <time>2013-06-10T10:51:18Z</time>
      </trkpt>
      <trkpt lat="45.86945" lon="2.96082">
        <ele>844.9</ele>
        <time>2013-06-10T10:51:26Z</time>
      </trkpt>
      <trkpt lat="45.86959" lon="2.961">
        <ele>846.52</ele>
        <time>2013-06-10T10:51:40Z</time>
      </trkpt>
      <trkpt lat="45.86968" lon="2.9613">
        <ele>847.02</ele>
        <time>2013-06-10T10:51:50Z</time>
      </trkpt>
      <trkpt lat="45.86984" lon="2.96158">
        <ele>847.04</ele>
        <time>2013-06-10T10:51:55Z</time>
      </trkpt>
      <trkpt lat="45.86997" lon="2.96178">
        <ele>846.51</ele>
        <time>2013-06-10T10:51:57Z</time>
      </trkpt>
      <trkpt lat="45.87007" lon="2.96204">
        <ele>845.41</ele>
        <time>2013-06-10T10:52:02Z</time>
      </trkpt>
      <trkpt lat="45.87008" lon="2.9623">
        <ele>844.35</ele>
        <time>2013-06-10T10:52:10Z</time>
      </trkpt>
      <trkpt lat="45.87011" lon="2.96256">
        <ele>843.64</ele>
        <time>2013-06-10T10:52:17Z</time>
      </trkpt>
      <trkpt lat="45.87018" lon="2.96281">
        <ele>846.44</ele>
        <time>2013-06-10T10:52:22Z</time>
      </trkpt>
      <trkpt lat="45.87023" lon="2.96311">
        <ele>848.53</ele>
        <time>2013-06-10T10:52:27Z</time>
      </trkpt>
      <trkpt lat="45.87038" lon="2.96335">
        <ele>845.55</ele>
        <time>2013-06-10T10:52:32Z</time>
      </trkpt>
      <trkpt lat="45.8705" lon="2.96364">
        <ele>838.78</ele>
        <time>2013-06-10T10:52:41Z</time>
      </trkpt>
      <trkpt lat="45.8706" lon="2.96385">
        <ele>838.23</ele>
        <time>2013-06-10T10:52:46Z</time>
      </trkpt>
      <trkpt lat="45.8707" lon="2.96409">
        <ele>839.4</ele>
        <time>2013-06-10T10:53:06Z</time>
      </trkpt>
      <trkpt lat="45.87077" lon="2.96436">
        <ele>839.98</ele>
        <time>2013-06-10T10:53:13Z</time>
      </trkpt>
      <trkpt lat="45.87088" lon="2.96458">
        <ele>839.44</ele>
        <time>2013-06-10T10:53:18Z</time>
      </trkpt>
      <trkpt lat="45.871" lon="2.96482">
        <ele>840.63</ele>
        <time>2013-06-10T10:53:25Z</time>
      </trkpt>
      <trkpt lat="45.87103" lon="2.96509">
        <ele>840.74</ele>
        <time>2013-06-10T10:53:32Z</time>
      </trkpt>
      <trkpt lat="45.8711" lon="2.96533">
        <ele>839.44</ele>
        <time>2013-06-10T10:53:36Z</time>
      </trkpt>
      <trkpt lat="45.8712" lon="2.96557">
        <ele>837.93</ele>
        <time>2013-06-10T10:53:41Z</time>
      </trkpt>
      <trkpt lat="45.87126" lon="2.96582">
        <ele>838.2</ele>
        <time>2013-06-10T10:53:46Z</time>
      </trkpt>
      <trkpt lat="45.8713" lon="2.96609">
        <ele>837.76</ele>
        <time>2013-06-10T10:53:51Z</time>
      </trkpt>
      <trkpt lat="45.87131" lon="2.96636">
        <ele>836.27</ele>
        <time>2013-06-10T10:53:58Z</time>
      </trkpt>
      <trkpt lat="45.87136" lon="2.96665">
        <ele>835.63</ele>
        <time>2013-06-10T10:54:03Z</time>
      </trkpt>
      <trkpt lat="45.8714" lon="2.96694">
        <ele>834.06</ele>
        <time>2013-06-10T10:54:11Z</time>
      </trkpt>
      <trkpt lat="45.87151" lon="2.96716">
        <ele>833.82</ele>
        <time>2013-06-10T10:54:17Z</time>
      </trkpt>
      <trkpt lat="45.87165" lon="2.96734">
        <ele>833.95</ele>
        <time>2013-06-10T10:54:23Z</time>
      </trkpt>
      <trkpt lat="45.87181" lon="2.96749">
        <ele>834.78</ele>
        <time>2013-06-10T10:54:30Z</time>
      </trkpt>
      <trkpt lat="45.87197" lon="2.96766">
        <ele>835.88</ele>
        <time>2013-06-10T10:54:37Z</time>
      </trkpt>
      <trkpt lat="45.87209" lon="2.9679">
        <ele>834.8</ele>
        <time>2013-06-10T10:54:43Z</time>
      </trkpt>
      <trkpt lat="45.87226" lon="2.96807">
        <ele>834.13</ele>
        <time>2013-06-10T10:54:48Z</time>
      </trkpt>
      <trkpt lat="45.87246" lon="2.96825">
        <ele>833</ele>
        <time>2013-06-10T10:54:56Z</time>
      </trkpt>
      <trkpt lat="45.87261" lon="2.96842">
        <ele>832.17</ele>
        <time>2013-06-10T10:55:01Z</time>
      </trkpt>
      <trkpt lat="45.8727" lon="2.96869">
        <ele>832.55</ele>
        <time>2013-06-10T10:55:12Z</time>
      </trkpt>
      <trkpt lat="45.87275" lon="2.96894">
        <ele>831.46</ele>
        <time>2013-06-10T10:55:17Z</time>
      </trkpt>
      <trkpt lat="45.87277" lon="2.96922">
        <ele>828.88</ele>
        <time>2013-06-10T10:55:23Z</time>
      </trkpt>
      <trkpt lat="45.87273" lon="2.96951">
        <ele>827.39</ele>
        <time>2013-06-10T10:55:49Z</time>
      </trkpt>
      <trkpt lat="45.87281" lon="2.96976">
        <ele>825.35</ele>
        <time>2013-06-10T10:55:53Z</time>
      </trkpt>
      <trkpt lat="45.87286" lon="2.97004">
        <ele>824.21</ele>
        <time>2013-06-10T10:56:02Z</time>
      </trkpt>
      <trkpt lat="45.87278" lon="2.97027">
        <ele>824.47</ele>
        <time>2013-06-10T10:56:13Z</time>
      </trkpt>
      <trkpt lat="45.87289" lon="2.97053">
        <ele>824.45</ele>
        <time>2013-06-10T10:56:18Z</time>
      </trkpt>
      <trkpt lat="45.87292" lon="2.97083">
        <ele>823.37</ele>
        <time>2013-06-10T10:56:24Z</time>
      </trkpt>
      <trkpt lat="45.873" lon="2.97108">
        <ele>823.05</ele>
        <time>2013-06-10T10:56:31Z</time>
      </trkpt>
      <trkpt lat="45.87309" lon="2.97131">
        <ele>823.65</ele>
        <time>2013-06-10T10:56:41Z</time>
      </trkpt>
      <trkpt lat="45.87306" lon="2.97157">
        <ele>826.06</ele>
        <time>2013-06-10T10:59:02Z</time>
      </trkpt>
      <trkpt lat="45.87292" lon="2.97178">
        <ele>832.61</ele>
        <time>2013-06-10T10:59:14Z</time>
      </trkpt>
      <trkpt lat="45.87277" lon="2.97194">
        <ele>830.94</ele>
        <time>2013-06-10T10:59:22Z</time>
      </trkpt>
      <trkpt lat="45.87267" lon="2.97217">
        <ele>830.57</ele>
        <time>2013-06-10T10:59:30Z</time>
      </trkpt>
      <trkpt lat="45.87257" lon="2.97238">
        <ele>835.12</ele>
        <time>2013-06-10T10:59:39Z</time>
      </trkpt>
      <trkpt lat="45.87243" lon="2.97256">
        <ele>834.59</ele>
        <time>2013-06-10T10:59:47Z</time>
      </trkpt>
      <trkpt lat="45.87231" lon="2.97276">
        <ele>841.15</ele>
        <time>2013-06-10T10:59:59Z</time>
      </trkpt>
      <trkpt lat="45.87214" lon="2.97265">
        <ele>836.94</ele>
        <time>2013-06-10T11:03:58Z</time>
      </trkpt>
      <trkpt lat="45.87204" lon="2.97241">
        <ele>836.73</ele>
        <time>2013-06-10T11:04:07Z</time>
      </trkpt>
      <trkpt lat="45.87203" lon="2.97213">
        <ele>842.08</ele>
        <time>2013-06-10T11:04:16Z</time>
      </trkpt>
      <trkpt lat="45.87189" lon="2.97192">
        <ele>845.48</ele>
        <time>2013-06-10T11:04:24Z</time>
      </trkpt>
      <trkpt lat="45.87179" lon="2.97167">
        <ele>843.63</ele>
        <time>2013-06-10T11:04:31Z</time>
      </trkpt>
      <trkpt lat="45.87167" lon="2.97147">
        <ele>845.34</ele>
        <time>2013-06-10T11:04:38Z</time>
      </trkpt>
      <trkpt lat="45.87152" lon="2.97127">
        <ele>846.79</ele>
        <time>2013-06-10T11:04:43Z</time>
      </trkpt>
      <trkpt lat="45.8714" lon="2.97107">
        <ele>844.08</ele>
        <time>2013-06-10T11:04:52Z</time>
      </trkpt>
      <trkpt lat="45.87133" lon="2.9708">
        <ele>846.99</ele>
        <time>2013-06-10T11:05:00Z</time>
      </trkpt>
      <trkpt lat="45.8712" lon="2.9706">
        <ele>848.64</ele>
        <time>2013-06-10T11:05:06Z</time>
      </trkpt>
      <trkpt lat="45.87111" lon="2.97038">
        <ele>844.51</ele>
        <time>2013-06-10T11:05:14Z</time>
      </trkpt>
      <trkpt lat="45.87091" lon="2.97038">
        <ele>843.56</ele>
        <time>2013-06-10T11:06:13Z</time>
      </trkpt>
      <trkpt lat="45.87071" lon="2.97028">
        <ele>838.41</ele>
        <time>2013-06-10T11:07:31Z</time>
      </trkpt>
      <trkpt lat="45.87056" lon="2.97044">
        <ele>837.91</ele>
        <time>2013-06-10T11:07:43Z</time>
      </trkpt>
      <trkpt lat="45.87043" lon="2.97061">
        <ele>841.93</ele>
        <time>2013-06-10T11:07:58Z</time>
      </trkpt>
      <trkpt lat="45.87026" lon="2.97071">
        <ele>850.1</ele>
        <time>2013-06-10T11:08:14Z</time>
      </trkpt>
      <trkpt lat="45.87008" lon="2.97077">
        <ele>853.91</ele>
        <time>2013-06-10T11:08:25Z</time>
      </trkpt>
      <trkpt lat="45.8699" lon="2.97079">
        <ele>854.33</ele>
        <time>2013-06-10T11:08:34Z</time>
      </trkpt>
      <trkpt lat="45.86972" lon="2.97086">
        <ele>856.75</ele>
        <time>2013-06-10T11:08:45Z</time>
      </trkpt>
      <trkpt lat="45.86955" lon="2.97099">
        <ele>857.12</ele>
        <time>2013-06-10T11:08:56Z</time>
      </trkpt>
      <trkpt lat="45.86939" lon="2.9711">
        <ele>859.21</ele>
        <time>2013-06-10T11:09:07Z</time>
      </trkpt>
      <trkpt lat="45.86918" lon="2.97116">
        <ele>861.28</ele>
        <time>2013-06-10T11:09:17Z</time>
      </trkpt>
      <trkpt lat="45.86899" lon="2.97127">
        <ele>860.44</ele>
        <time>2013-06-10T11:09:25Z</time>
      </trkpt>
      <trkpt lat="45.8688" lon="2.97126">
        <ele>859.66</ele>
        <time>2013-06-10T11:09:36Z</time>
      </trkpt>
      <trkpt lat="45.86863" lon="2.97119">
        <ele>861.98</ele>
        <time>2013-06-10T11:09:43Z</time>
      </trkpt>
      <trkpt lat="45.86845" lon="2.97105">
        <ele>863.4</ele>
        <time>2013-06-10T11:09:52Z</time>
      </trkpt>
      <trkpt lat="45.86829" lon="2.97089">
        <ele>872.05</ele>
        <time>2013-06-10T11:10:02Z</time>
      </trkpt>
      <trkpt lat="45.86818" lon="2.97066">
        <ele>875.92</ele>
        <time>2013-06-10T11:10:14Z</time>
      </trkpt>
      <trkpt lat="45.86804" lon="2.97047">
        <ele>875.68</ele>
        <time>2013-06-10T11:10:25Z</time>
      </trkpt>
      <trkpt lat="45.86808" lon="2.97022">
        <ele>859.75</ele>
        <time>2013-06-10T11:11:13Z</time>
      </trkpt>
      <trkpt lat="45.86792" lon="2.97006">
        <ele>855.08</ele>
        <time>2013-06-10T11:11:18Z</time>
      </trkpt>
      <trkpt lat="45.86778" lon="2.97023">
        <ele>852.88</ele>
        <time>2013-06-10T11:11:46Z</time>
      </trkpt>
      <trkpt lat="45.86758" lon="2.97023">
        <ele>857.61</ele>
        <time>2013-06-10T11:11:57Z</time>
      </trkpt>
      <trkpt lat="45.86739" lon="2.97026">
        <ele>856.85</ele>
        <time>2013-06-10T11:12:05Z</time>
      </trkpt>
      <trkpt lat="45.86722" lon="2.97035">
        <ele>866.15</ele>
        <time>2013-06-10T11:12:15Z</time>
      </trkpt>
      <trkpt lat="45.86702" lon="2.97034">
        <ele>867.84</ele>
        <time>2013-06-10T11:12:26Z</time>
      </trkpt>
      <trkpt lat="45.86684" lon="2.97036">
        <ele>871.78</ele>
        <time>2013-06-10T11:12:36Z</time>
      </trkpt>
      <trkpt lat="45.86666" lon="2.97028">
        <ele>875.79</ele>
        <time>2013-06-10T11:12:46Z</time>
      </trkpt>
      <trkpt lat="45.86649" lon="2.97015">
        <ele>878.22</ele>
        <time>2013-06-10T11:12:55Z</time>
      </trkpt>
      <trkpt lat="45.86631" lon="2.97002">
        <ele>872.85</ele>
        <time>2013-06-10T11:13:01Z</time>
      </trkpt>
      <trkpt lat="45.86614" lon="2.9699">
        <ele>880.29</ele>
        <time>2013-06-10T11:13:14Z</time>
      </trkpt>
      <trkpt lat="45.86599" lon="2.96973">
        <ele>881.06</ele>
        <time>2013-06-10T11:13:24Z</time>
      </trkpt>
      <trkpt lat="45.86584" lon="2.96959">
        <ele>880.91</ele>
        <time>2013-06-10T11:13:33Z</time>
      </trkpt>
      <trkpt lat="45.86566" lon="2.96953">
        <ele>882.04</ele>
        <time>2013-06-10T11:13:49Z</time>
      </trkpt>
      <trkpt lat="45.86546" lon="2.96959">
        <ele>884.27</ele>
        <time>2013-06-10T11:14:04Z</time>
      </trkpt>
      <trkpt lat="45.86525" lon="2.96966">
        <ele>880.04</ele>
        <time>2013-06-10T11:14:12Z</time>
      </trkpt>
      <trkpt lat="45.86506" lon="2.96971">
        <ele>876.48</ele>
        <time>2013-06-10T11:14:18Z</time>
      </trkpt>
      <trkpt lat="45.8649" lon="2.96987">
        <ele>872.08</ele>
        <time>2013-06-10T11:14:26Z</time>
      </trkpt>
      <trkpt lat="45.86471" lon="2.96991">
        <ele>873.29</ele>
        <time>2013-06-10T11:14:43Z</time>
      </trkpt>
      <trkpt lat="45.8646" lon="2.97012">
        <ele>874.5</ele>
        <time>2013-06-10T11:14:55Z</time>
      </trkpt>
      <trkpt lat="45.86458" lon="2.97038">
        <ele>869.91</ele>
        <time>2013-06-10T11:15:08Z</time>
      </trkpt>
      <trkpt lat="45.86445" lon="2.97055">
        <ele>865.02</ele>
        <time>2013-06-10T11:16:29Z</time>
      </trkpt>
      <trkpt lat="45.86428" lon="2.97066">
        <ele>861.76</ele>
        <time>2013-06-10T11:17:06Z</time>
      </trkpt>
      <trkpt lat="45.86414" lon="2.97084">
        <ele>864.98</ele>
        <time>2013-06-10T11:17:19Z</time>
      </trkpt>
      <trkpt lat="45.86395" lon="2.97085">
        <ele>868.41</ele>
        <time>2013-06-10T11:17:34Z</time>
      </trkpt>
      <trkpt lat="45.86376" lon="2.97084">
        <ele>869.36</ele>
        <time>2013-06-10T11:17:42Z</time>
      </trkpt>
      <trkpt lat="45.86357" lon="2.97081">
        <ele>873.05</ele>
        <time>2013-06-10T11:17:52Z</time>
      </trkpt>
      <trkpt lat="45.86343" lon="2.97063">
        <ele>868.83</ele>
        <time>2013-06-10T11:18:03Z</time>
      </trkpt>
      <trkpt lat="45.86324" lon="2.9706">
        <ele>876.78</ele>
        <time>2013-06-10T11:18:15Z</time>
      </trkpt>
      <trkpt lat="45.86305" lon="2.97057">
        <ele>886.92</ele>
        <time>2013-06-10T11:18:25Z</time>
      </trkpt>
      <trkpt lat="45.86287" lon="2.97046">
        <ele>892.19</ele>
        <time>2013-06-10T11:18:40Z</time>
      </trkpt>
      <trkpt lat="45.86268" lon="2.97036">
        <ele>892.02</ele>
        <time>2013-06-10T11:18:49Z</time>
      </trkpt>
      <trkpt lat="45.86251" lon="2.97021">
        <ele>888.99</ele>
        <time>2013-06-10T11:18:57Z</time>
      </trkpt>
      <trkpt lat="45.86233" lon="2.97017">
        <ele>885.71</ele>
        <time>2013-06-10T11:19:04Z</time>
      </trkpt>
      <trkpt lat="45.86216" lon="2.97008">
        <ele>886.2</ele>
        <time>2013-06-10T11:19:23Z</time>
      </trkpt>
      <trkpt lat="45.862" lon="2.96991">
        <ele>883.34</ele>
        <time>2013-06-10T11:19:54Z</time>
      </trkpt>
      <trkpt lat="45.8618" lon="2.97">
        <ele>877.67</ele>
        <time>2013-06-10T11:20:22Z</time>
      </trkpt>
      <trkpt lat="45.86164" lon="2.97014">
        <ele>873.37</ele>
        <time>2013-06-10T11:20:28Z</time>
      </trkpt>
      <trkpt lat="45.86154" lon="2.97037">
        <ele>868.25</ele>
        <time>2013-06-10T11:20:39Z</time>
      </trkpt>
      <trkpt lat="45.86136" lon="2.97047">
        <ele>866.85</ele>
        <time>2013-06-10T11:20:48Z</time>
      </trkpt>
      <trkpt lat="45.8612" lon="2.97058">
        <ele>864.57</ele>
        <time>2013-06-10T11:20:56Z</time>
      </trkpt>
      <trkpt lat="45.86114" lon="2.97086">
        <ele>859.36</ele>
        <time>2013-06-10T11:21:04Z</time>
      </trkpt>
      <trkpt lat="45.86101" lon="2.97106">
        <ele>861.33</ele>
        <time>2013-06-10T11:21:18Z</time>
      </trkpt>
      <trkpt lat="45.86089" lon="2.97127">
        <ele>862.98</ele>
        <time>2013-06-10T11:21:30Z</time>
      </trkpt>
      <trkpt lat="45.86078" lon="2.9715">
        <ele>863.06</ele>
        <time>2013-06-10T11:21:40Z</time>
      </trkpt>
      <trkpt lat="45.86069" lon="2.97173">
        <ele>865.42</ele>
        <time>2013-06-10T11:21:53Z</time>
      </trkpt>
      <trkpt lat="45.86051" lon="2.97183">
        <ele>869.52</ele>
        <time>2013-06-10T11:22:02Z</time>
      </trkpt>
      <trkpt lat="45.86041" lon="2.97207">
        <ele>871.23</ele>
        <time>2013-06-10T11:22:10Z</time>
      </trkpt>
      <trkpt lat="45.86028" lon="2.97227">
        <ele>871.25</ele>
        <time>2013-06-10T11:22:18Z</time>
      </trkpt>
      <trkpt lat="45.86022" lon="2.97254">
        <ele>867.52</ele>
        <time>2013-06-10T11:22:25Z</time>
      </trkpt>
      <trkpt lat="45.86014" lon="2.97279">
        <ele>868.15</ele>
        <time>2013-06-10T11:22:31Z</time>
      </trkpt>
      <trkpt lat="45.86002" lon="2.973">
        <ele>871.22</ele>
        <time>2013-06-10T11:22:39Z</time>
      </trkpt>
      <trkpt lat="45.85987" lon="2.97317">
        <ele>872.51</ele>
        <time>2013-06-10T11:22:46Z</time>
      </trkpt>
      <trkpt lat="45.85976" lon="2.97338">
        <ele>872.45</ele>
        <time>2013-06-10T11:22:55Z</time>
      </trkpt>
      <trkpt lat="45.85963" lon="2.97355">
        <ele>873.04</ele>
        <time>2013-06-10T11:23:01Z</time>
      </trkpt>
      <trkpt lat="45.85944" lon="2.97358">
        <ele>871.2</ele>
        <time>2013-06-10T11:23:07Z</time>
      </trkpt>
      <trkpt lat="45.85927" lon="2.97366">
        <ele>870.15</ele>
        <time>2013-06-10T11:23:22Z</time>
      </trkpt>
      <trkpt lat="45.85921" lon="2.97391">
        <ele>870.17</ele>
        <time>2013-06-10T11:23:32Z</time>
      </trkpt>
      <trkpt lat="45.85915" lon="2.97415">
        <ele>870.4</ele>
        <time>2013-06-10T11:23:42Z</time>
      </trkpt>
      <trkpt lat="45.85903" lon="2.97438">
        <ele>868.49</ele>
        <time>2013-06-10T11:23:53Z</time>
      </trkpt>
      <trkpt lat="45.85891" lon="2.97459">
        <ele>872.99</ele>
        <time>2013-06-10T11:24:07Z</time>
      </trkpt>
      <trkpt lat="45.85885" lon="2.97484">
        <ele>873.59</ele>
        <time>2013-06-10T11:24:16Z</time>
      </trkpt>
      <trkpt lat="45.85875" lon="2.97506">
        <ele>875.82</ele>
        <time>2013-06-10T11:24:25Z</time>
      </trkpt>
      <trkpt lat="45.85868" lon="2.97531">
        <ele>884.68</ele>
        <time>2013-06-10T11:24:41Z</time>
      </trkpt>
      <trkpt lat="45.85869" lon="2.97557">
        <ele>884.71</ele>
        <time>2013-06-10T11:24:51Z</time>
      </trkpt>
      <trkpt lat="45.85872" lon="2.97584">
        <ele>885.4</ele>
        <time>2013-06-10T11:25:00Z</time>
      </trkpt>
      <trkpt lat="45.85857" lon="2.976">
        <ele>878.87</ele>
        <time>2013-06-10T11:25:09Z</time>
      </trkpt>
      <trkpt lat="45.85848" lon="2.97623">
        <ele>876.76</ele>
        <time>2013-06-10T11:25:24Z</time>
      </trkpt>
      <trkpt lat="45.8583" lon="2.97633">
        <ele>881.4</ele>
        <time>2013-06-10T11:25:35Z</time>
      </trkpt>
      <trkpt lat="45.85818" lon="2.97657">
        <ele>882.71</ele>
        <time>2013-06-10T11:25:50Z</time>
      </trkpt>
      <trkpt lat="45.85806" lon="2.97677">
        <ele>886.01</ele>
        <time>2013-06-10T11:26:03Z</time>
      </trkpt>
      <trkpt lat="45.85796" lon="2.97699">
        <ele>890.52</ele>
        <time>2013-06-10T11:26:13Z</time>
      </trkpt>
      <trkpt lat="45.85797" lon="2.97725">
        <ele>890.8</ele>
        <time>2013-06-10T11:26:26Z</time>
      </trkpt>
      <trkpt lat="45.85795" lon="2.97754">
        <ele>896.92</ele>
        <time>2013-06-10T11:26:42Z</time>
      </trkpt>
      <trkpt lat="45.858" lon="2.9778">
        <ele>899.66</ele>
        <time>2013-06-10T11:26:54Z</time>
      </trkpt>
      <trkpt lat="45.85797" lon="2.97808">
        <ele>902.07</ele>
        <time>2013-06-10T11:27:05Z</time>
      </trkpt>
      <trkpt lat="45.85799" lon="2.97838">
        <ele>901.54</ele>
        <time>2013-06-10T11:27:13Z</time>
      </trkpt>
      <trkpt lat="45.85793" lon="2.97867">
        <ele>896.42</ele>
        <time>2013-06-10T11:27:27Z</time>
      </trkpt>
      <trkpt lat="45.85783" lon="2.97891">
        <ele>894.85</ele>
        <time>2013-06-10T11:27:39Z</time>
      </trkpt>
      <trkpt lat="45.85773" lon="2.97917">
        <ele>894.29</ele>
        <time>2013-06-10T11:27:52Z</time>
      </trkpt>
      <trkpt lat="45.85768" lon="2.97943">
        <ele>894.74</ele>
        <time>2013-06-10T11:28:00Z</time>
      </trkpt>
      <trkpt lat="45.85757" lon="2.97964">
        <ele>898.29</ele>
        <time>2013-06-10T11:28:11Z</time>
      </trkpt>
      <trkpt lat="45.85745" lon="2.97986">
        <ele>899.18</ele>
        <time>2013-06-10T11:28:22Z</time>
      </trkpt>
      <trkpt lat="45.85733" lon="2.98005">
        <ele>895.95</ele>
        <time>2013-06-10T11:28:35Z</time>
      </trkpt>
      <trkpt lat="45.85721" lon="2.9803">
        <ele>889.57</ele>
        <time>2013-06-10T11:28:41Z</time>
      </trkpt>
      <trkpt lat="45.85707" lon="2.98051">
        <ele>885.83</ele>
        <time>2013-06-10T11:28:46Z</time>
      </trkpt>
      <trkpt lat="45.85689" lon="2.98061">
        <ele>883.73</ele>
        <time>2013-06-10T11:28:57Z</time>
      </trkpt>
      <trkpt lat="45.85671" lon="2.9806">
        <ele>880.15</ele>
        <time>2013-06-10T11:29:44Z</time>
      </trkpt>
    </trkseg>
  </trk>
</gpx>